Wetterdaten: Freitag, 24.09.2021
Datum Zeit Temp. Aussen Temp. o. S. Temp +5cm Feuchte Auss Luftdruck Regen Sonnenschein Regendauer Solar Windben Empfang
24.09.2021 00:00 16,1 C 15,6 C 13,9 C 88 % 1017,9 hPa 0,0 l/m 0 min 0 min 0 W/m 3,2 km/h (1 Bft) 98,31 %
24.09.2021 00:02 16,1 C 15,6 C 13,9 C 88 % 1017,9 hPa 0,0 l/m 0 min 0 min 0 W/m 3,2 km/h (1 Bft) 95,74 %
24.09.2021 00:04 16,1 C 15,6 C 13,9 C 88 % 1017,9 hPa 0,0 l/m 0 min 0 min 0 W/m 6,4 km/h (2 Bft) 95,65 %
24.09.2021 00:06 16,1 C 15,6 C 13,9 C 88 % 1017,9 hPa 0,0 l/m 0 min 0 min 0 W/m 12,9 km/h (3 Bft) 97,14 %
24.09.2021 00:08 16,1 C 15,6 C 13,9 C 88 % 1017,9 hPa 0,0 l/m 0 min 0 min 0 W/m 3,2 km/h (1 Bft) 95,74 %
24.09.2021 00:10 16,1 C 15,6 C 13,9 C 88 % 1017,9 hPa 0,0 l/m 0 min 0 min 0 W/m 6,4 km/h (2 Bft) 95,74 %
24.09.2021 00:12 16,1 C 15,6 C 13,9 C 88 % 1017,9 hPa 0,0 l/m 0 min 0 min 0 W/m 3,2 km/h (1 Bft) 93,62 %
24.09.2021 00:14 16,1 C 15,6 C 13,9 C 88 % 1017,9 hPa 0,0 l/m 0 min 0 min 0 W/m 6,4 km/h (2 Bft) 97,87 %
24.09.2021 00:16 16,1 C 15,6 C 13,9 C 88 % 1017,8 hPa 0,0 l/m 0 min 0 min 0 W/m 6,4 km/h (2 Bft) 97,83 %
24.09.2021 00:18 16,1 C 15,6 C 13,9 C 88 % 1017,9 hPa 0,0 l/m 0 min 0 min 0 W/m 6,4 km/h (2 Bft) 97,87 %
24.09.2021 00:20 16,1 C 15,6 C 13,9 C 89 % 1017,9 hPa 0,0 l/m 0 min 0 min 0 W/m 6,4 km/h (2 Bft) 95,74 %
24.09.2021 00:22 16,1 C 15,6 C 13,9 C 89 % 1017,8 hPa 0,0 l/m 0 min 0 min 0 W/m 6,4 km/h (2 Bft) 97,87 %
24.09.2021 00:24 16,1 C 15,6 C 13,9 C 89 % 1017,9 hPa 0,0 l/m 0 min 0 min 0 W/m 6,4 km/h (2 Bft) 97,87 %
24.09.2021 00:26 16,2 C 15,6 C 13,9 C 89 % 1017,9 hPa 0,0 l/m 0 min 0 min 0 W/m 6,4 km/h (2 Bft) 100,00 %
24.09.2021 00:28 16,2 C 15,6 C 13,9 C 88 % 1017,8 hPa 0,0 l/m 0 min 0 min 0 W/m 6,4 km/h (2 Bft) 100,00 %
24.09.2021 00:30 16,1 C 15,6 C 13,9 C 89 % 1017,9 hPa 0,0 l/m 0 min 0 min 0 W/m 6,4 km/h (2 Bft) 100,00 %
24.09.2021 00:32 16,2 C 15,6 C 13,9 C 89 % 1017,9 hPa 0,0 l/m 0 min 0 min 0 W/m 12,9 km/h (3 Bft) 95,74 %
24.09.2021 00:34 16,1 C 15,6 C 13,9 C 88 % 1017,8 hPa 0,0 l/m 0 min 0 min 0 W/m 9,7 km/h (2 Bft) 100,00 %
24.09.2021 00:36 16,1 C 15,6 C 13,9 C 88 % 1017,8 hPa 0,0 l/m 0 min 0 min 0 W/m 3,2 km/h (1 Bft) 100,00 %
24.09.2021 00:38 16,1 C 15,6 C 13,9 C 88 % 1017,8 hPa 0,0 l/m 0 min 0 min 0 W/m 12,9 km/h (3 Bft) 100,00 %
24.09.2021 00:40 16,1 C 15,6 C 13,9 C 88 % 1017,8 hPa 0,0 l/m 0 min 0 min 0 W/m 6,4 km/h (2 Bft) 100,00 %
24.09.2021 00:42 16,2 C 15,6 C 13,9 C 88 % 1017,8 hPa 0,0 l/m 0 min 0 min 0 W/m 6,4 km/h (2 Bft) 97,87 %
24.09.2021 00:44 16,1 C 15,6 C 13,9 C 88 % 1017,8 hPa 0,0 l/m 0 min 0 min 0 W/m 9,7 km/h (2 Bft) 100,00 %
24.09.2021 00:46 16,1 C 15,6 C 13,9 C 88 % 1017,8 hPa 0,0 l/m 0 min 0 min 0 W/m 6,4 km/h (2 Bft) 95,74 %
24.09.2021 00:48 16,1 C 15,6 C 13,9 C 89 % 1017,9 hPa 0,0 l/m 0 min 0 min 0 W/m 6,4 km/h (2 Bft) 97,87 %
24.09.2021 00:50 16,1 C 15,6 C 13,9 C 89 % 1017,9 hPa 0,0 l/m 0 min 0 min 0 W/m 6,4 km/h (2 Bft) 100,00 %
24.09.2021 00:52 16,1 C 15,6 C 13,9 C 89 % 1017,9 hPa 0,0 l/m 0 min 0 min 0 W/m 9,7 km/h (2 Bft) 95,65 %
24.09.2021 00:54 16,1 C 15,6 C 13,9 C 89 % 1017,9 hPa 0,0 l/m 0 min 0 min 0 W/m 9,7 km/h (2 Bft) 95,74 %
24.09.2021 00:56 16,2 C 15,6 C 13,9 C 89 % 1017,9 hPa 0,0 l/m 0 min 0 min 0 W/m 6,4 km/h (2 Bft) 93,62 %
24.09.2021 00:58 16,2 C 15,6 C 13,9 C 89 % 1017,8 hPa 0,0 l/m 0 min 0 min 0 W/m 3,2 km/h (1 Bft) 93,62 %
24.09.2021 01:00 16,2 C 15,6 C 13,9 C 89 % 1017,9 hPa 0,0 l/m 0 min 0 min 0 W/m 12,9 km/h (3 Bft) 95,74 %
24.09.2021 01:02 16,2 C 15,6 C 13,9 C 89 % 1017,8 hPa 0,0 l/m 0 min 0 min 0 W/m 6,4 km/h (2 Bft) 95,74 %
24.09.2021 01:04 16,2 C 15,6 C 13,9 C 89 % 1017,9 hPa 0,0 l/m 0 min 0 min 0 W/m 6,4 km/h (2 Bft) 95,65 %
24.09.2021 01:06 16,1 C 15,6 C 13,9 C 89 % 1017,9 hPa 0,0 l/m 0 min 0 min 0 W/m 9,7 km/h (2 Bft) 95,74 %
24.09.2021 01:08 16,1 C 15,6 C 13,9 C 89 % 1017,8 hPa 0,0 l/m 0 min 0 min 0 W/m 6,4 km/h (2 Bft) 93,62 %
24.09.2021 01:10 16,1 C 15,6 C 13,9 C 89 % 1017,8 hPa 0,0 l/m 0 min 0 min 0 W/m 6,4 km/h (2 Bft) 95,74 %
24.09.2021 01:12 16,1 C 15,6 C 13,9 C 89 % 1017,8 hPa 0,0 l/m 0 min 0 min 0 W/m 6,4 km/h (2 Bft) 95,74 %
24.09.2021 01:14 16,1 C 15,6 C 13,9 C 89 % 1017,8 hPa 0,0 l/m 0 min 0 min 0 W/m 6,4 km/h (2 Bft) 95,74 %
24.09.2021 01:16 16,1 C 15,6 C 13,9 C 89 % 1017,8 hPa 0,0 l/m 0 min 0 min 0 W/m 6,4 km/h (2 Bft) 95,65 %
24.09.2021 01:18 16,1 C 15,6 C 13,9 C 89 % 1017,8 hPa 0,0 l/m 0 min 0 min 0 W/m 6,4 km/h (2 Bft) 95,74 %
24.09.2021 01:20 16,1 C 15,6 C 13,9 C 89 % 1017,8 hPa 0,0 l/m 0 min 0 min 0 W/m 6,4 km/h (2 Bft) 95,74 %
24.09.2021 01:22 16,1 C 15,6 C 13,9 C 89 % 1017,8 hPa 0,0 l/m 0 min 0 min 0 W/m 3,2 km/h (1 Bft) 95,74 %
24.09.2021 01:24 16,1 C 15,6 C 13,9 C 89 % 1017,8 hPa 0,0 l/m 0 min 0 min 0 W/m 0,0 km/h (0 Bft) 95,74 %
24.09.2021 01:26 16,1 C 15,6 C 13,9 C 89 % 1017,8 hPa 0,0 l/m 0 min 0 min 0 W/m 3,2 km/h (1 Bft) 93,62 %
24.09.2021 01:28 16,1 C 15,6 C 13,9 C 89 % 1017,8 hPa 0,0 l/m 0 min 0 min 0 W/m 9,7 km/h (2 Bft) 95,65 %
24.09.2021 01:30 16,1 C 15,6 C 13,9 C 89 % 1017,8 hPa 0,0 l/m 0 min 0 min 0 W/m 9,7 km/h (2 Bft) 93,62 %
24.09.2021 01:32 16,1 C 15,6 C 13,9 C 89 % 1017,8 hPa 0,0 l/m 0 min 0 min 0 W/m 6,4 km/h (2 Bft) 97,87 %
24.09.2021 01:34 16,0 C 15,6 C 13,9 C 89 % 1017,7 hPa 0,0 l/m 0 min 0 min 0 W/m 6,4 km/h (2 Bft) 97,87 %
24.09.2021 01:36 16,0 C 15,6 C 13,9 C 89 % 1017,8 hPa 0,0 l/m 0 min 0 min 0 W/m 6,4 km/h (2 Bft) 97,87 %
24.09.2021 01:38 16,0 C 15,6 C 13,9 C 89 % 1017,8 hPa 0,0 l/m 0 min 0 min 0 W/m 9,7 km/h (2 Bft) 97,87 %
24.09.2021 01:40 16,0 C 15,0 C 13,9 C 90 % 1017,8 hPa 0,0 l/m 0 min 0 min 0 W/m 3,2 km/h (1 Bft) 97,83 %
24.09.2021 01:42 16,0 C 15,0 C 13,9 C 90 % 1017,8 hPa 0,0 l/m 0 min 0 min 0 W/m 6,4 km/h (2 Bft) 97,87 %
24.09.2021 01:44 16,0 C 15,0 C 13,9 C 90 % 1017,8 hPa 0,0 l/m 0 min 0 min 0 W/m 6,4 km/h (2 Bft) 97,87 %
24.09.2021 01:46 16,0 C 15,0 C 13,9 C 90 % 1017,7 hPa 0,0 l/m 0 min 0 min 0 W/m 3,2 km/h (1 Bft) 100,00 %
24.09.2021 01:48 16,0 C 15,0 C 13,9 C 90 % 1017,7 hPa 0,0 l/m 0 min 0 min 0 W/m 6,4 km/h (2 Bft) 100,00 %
24.09.2021 01:50 16,0 C 15,0 C 13,9 C 90 % 1017,7 hPa 0,0 l/m 0 min 0 min 0 W/m 6,4 km/h (2 Bft) 97,87 %
24.09.2021 01:52 16,0 C 15,0 C 13,9 C 90 % 1017,7 hPa 0,0 l/m 0 min 0 min 0 W/m 3,2 km/h (1 Bft) 100,00 %
24.09.2021 01:54 16,0 C 15,0 C 13,9 C 90 % 1017,7 hPa 0,0 l/m 0 min 0 min 0 W/m 3,2 km/h (1 Bft) 100,00 %
24.09.2021 01:56 16,0 C 15,0 C 13,9 C 90 % 1017,7 hPa 0,0 l/m 0 min 0 min 0 W/m 6,4 km/h (2 Bft) 100,00 %
24.09.2021 01:58 16,0 C 15,0 C 13,9 C 90 % 1017,8 hPa 0,0 l/m 0 min 0 min 0 W/m 3,2 km/h (1 Bft) 100,00 %
24.09.2021 02:00 16,0 C 15,0 C 13,9 C 90 % 1017,7 hPa 0,0 l/m 0 min 0 min 0 W/m 6,4 km/h (2 Bft) 97,87 %
24.09.2021 02:02 16,0 C 15,0 C 13,9 C 90 % 1017,7 hPa 0,0 l/m 0 min 0 min 0 W/m 3,2 km/h (1 Bft) 100,00 %
24.09.2021 02:04 16,0 C 15,0 C 13,9 C 90 % 1017,7 hPa 0,0 l/m 0 min 0 min 0 W/m 3,2 km/h (1 Bft) 100,00 %
24.09.2021 02:06 15,9 C 15,0 C 13,9 C 90 % 1017,7 hPa 0,0 l/m 0 min 0 min 0 W/m 3,2 km/h (1 Bft) 100,00 %
24.09.2021 02:08 16,0 C 15,0 C 13,9 C 90 % 1017,7 hPa 0,0 l/m 0 min 0 min 0 W/m 6,4 km/h (2 Bft) 97,87 %
24.09.2021 02:10 15,9 C 15,0 C 13,9 C 90 % 1017,8 hPa 0,0 l/m 0 min 0 min 0 W/m 6,4 km/h (2 Bft) 100,00 %
24.09.2021 02:12 15,9 C 15,0 C 13,9 C 90 % 1017,8 hPa 0,0 l/m 0 min 0 min 0 W/m 3,2 km/h (1 Bft) 97,87 %
24.09.2021 02:14 15,9 C 15,0 C 13,9 C 90 % 1017,7 hPa 0,0 l/m 0 min 0 min 0 W/m 6,4 km/h (2 Bft) 100,00 %
24.09.2021 02:16 15,9 C 15,0 C 13,9 C 90 % 1017,7 hPa 0,0 l/m 0 min 0 min 0 W/m 6,4 km/h (2 Bft) 100,00 %
24.09.2021 02:18 15,9 C 15,0 C 13,9 C 90 % 1017,7 hPa 0,0 l/m 0 min 0 min 0 W/m 6,4 km/h (2 Bft) 97,87 %
24.09.2021 02:20 15,9 C 15,0 C 13,9 C 90 % 1017,7 hPa 0,0 l/m 0 min 0 min 0 W/m 6,4 km/h (2 Bft) 100,00 %
24.09.2021 02:22 15,9 C 15,0 C 13,9 C 90 % 1017,6 hPa 0,0 l/m 0 min 0 min 0 W/m 9,7 km/h (2 Bft) 97,87 %
24.09.2021 02:24 15,9 C 15,0 C 13,9 C 90 % 1017,6 hPa 0,0 l/m 0 min 0 min 0 W/m 3,2 km/h (1 Bft) 100,00 %
24.09.2021 02:26 15,9 C 15,0 C 13,9 C 90 % 1017,6 hPa 0,0 l/m 0 min 0 min 0 W/m 6,4 km/h (2 Bft) 100,00 %
24.09.2021 02:28 15,9 C 15,0 C 13,4 C 90 % 1017,6 hPa 0,0 l/m 0 min 0 min 0 W/m 6,4 km/h (2 Bft) 97,83 %
24.09.2021 02:30 15,9 C 15,0 C 13,4 C 90 % 1017,6 hPa 0,0 l/m 0 min 0 min 0 W/m 3,2 km/h (1 Bft) 97,87 %
24.09.2021 02:32 15,9 C 15,0 C 13,4 C 90 % 1017,6 hPa 0,0 l/m 0 min 0 min 0 W/m 3,2 km/h (1 Bft) 97,87 %
24.09.2021 02:34 15,9 C 15,0 C 13,4 C 90 % 1017,6 hPa 0,0 l/m 0 min 0 min 0 W/m 3,2 km/h (1 Bft) 95,74 %
24.09.2021 02:36 15,9 C 15,0 C 13,4 C 90 % 1017,6 hPa 0,0 l/m 0 min 0 min 0 W/m 6,4 km/h (2 Bft) 95,74 %
24.09.2021 02:38 15,9 C 15,0 C 13,4 C 91 % 1017,5 hPa 0,0 l/m 0 min 0 min 0 W/m 3,2 km/h (1 Bft) 97,83 %
24.09.2021 02:40 15,9 C 15,0 C 13,4 C 91 % 1017,5 hPa 0,0 l/m 0 min 0 min 0 W/m 9,7 km/h (2 Bft) 97,87 %
24.09.2021 02:42 15,9 C 15,0 C 13,4 C 91 % 1017,5 hPa 0,0 l/m 0 min 0 min 0 W/m 3,2 km/h (1 Bft) 97,87 %
24.09.2021 02:44 15,9 C 15,0 C 13,4 C 91 % 1017,5 hPa 0,0 l/m 0 min 0 min 0 W/m 3,2 km/h (1 Bft) 95,74 %
24.09.2021 02:46 15,9 C 15,0 C 13,4 C 91 % 1017,5 hPa 0,0 l/m 0 min 0 min 0 W/m 6,4 km/h (2 Bft) 97,87 %
24.09.2021 02:48 15,9 C 15,0 C 13,4 C 91 % 1017,5 hPa 0,0 l/m 0 min 0 min 0 W/m 6,4 km/h (2 Bft) 95,74 %
24.09.2021 02:50 15,8 C 15,0 C 13,4 C 91 % 1017,5 hPa 0,0 l/m 0 min 0 min 0 W/m 6,4 km/h (2 Bft) 97,83 %
24.09.2021 02:52 15,8 C 15,0 C 13,4 C 91 % 1017,5 hPa 0,0 l/m 0 min 0 min 0 W/m 6,4 km/h (2 Bft) 95,74 %
24.09.2021 02:54 15,8 C 15,0 C 13,4 C 91 % 1017,5 hPa 0,0 l/m 0 min 0 min 0 W/m 6,4 km/h (2 Bft) 95,74 %
24.09.2021 02:56 15,8 C 15,0 C 13,4 C 91 % 1017,5 hPa 0,0 l/m 0 min 0 min 0 W/m 3,2 km/h (1 Bft) 95,74 %
24.09.2021 02:58 15,8 C 15,0 C 13,4 C 91 % 1017,4 hPa 0,0 l/m 0 min 0 min 0 W/m 6,4 km/h (2 Bft) 95,74 %
24.09.2021 03:00 15,8 C 15,0 C 13,4 C 91 % 1017,5 hPa 0,0 l/m 0 min 0 min 0 W/m 6,4 km/h (2 Bft) 95,74 %
24.09.2021 03:02 15,8 C 15,0 C 13,4 C 91 % 1017,5 hPa 0,0 l/m 0 min 0 min 0 W/m 9,7 km/h (2 Bft) 95,65 %
24.09.2021 03:04 15,8 C 15,0 C 13,4 C 91 % 1017,4 hPa 0,0 l/m 0 min 0 min 0 W/m 6,4 km/h (2 Bft) 93,62 %
24.09.2021 03:06 15,8 C 15,0 C 13,4 C 91 % 1017,4 hPa 0,0 l/m 0 min 0 min 0 W/m 3,2 km/h (1 Bft) 91,49 %
24.09.2021 03:08 15,8 C 15,0 C 13,4 C 91 % 1017,4 hPa 0,0 l/m 0 min 0 min 0 W/m 6,4 km/h (2 Bft) 95,74 %
24.09.2021 03:10 15,7 C 15,0 C 13,4 C 91 % 1017,3 hPa 0,0 l/m 0 min 0 min 0 W/m 12,9 km/h (3 Bft) 97,87 %
24.09.2021 03:12 15,7 C 15,0 C 13,9 C 91 % 1017,3 hPa 0,0 l/m 0 min 0 min 0 W/m 6,4 km/h (2 Bft) 97,87 %
24.09.2021 03:14 15,7 C 15,0 C 13,9 C 92 % 1017,4 hPa 0,0 l/m 0 min 0 min 0 W/m 6,4 km/h (2 Bft) 93,48 %
24.09.2021 03:16 15,7 C 15,0 C 13,4 C 92 % 1017,3 hPa 0,0 l/m 0 min 0 min 0 W/m 6,4 km/h (2 Bft) 95,74 %
24.09.2021 03:18 15,7 C 15,0 C 13,4 C 92 % 1017,4 hPa 0,0 l/m 0 min 0 min 0 W/m 3,2 km/h (1 Bft) 97,87 %
24.09.2021 03:20 15,8 C 15,0 C 13,4 C 92 % 1017,3 hPa 0,0 l/m 0 min 0 min 0 W/m 6,4 km/h (2 Bft) 97,87 %
24.09.2021 03:22 15,7 C 15,0 C 13,9 C 92 % 1017,3 hPa 0,0 l/m 0 min 0 min 0 W/m 6,4 km/h (2 Bft) 97,87 %
24.09.2021 03:24 15,7 C 15,0 C 13,9 C 91 % 1017,3 hPa 0,0 l/m 0 min 0 min 0 W/m 6,4 km/h (2 Bft) 97,87 %
24.09.2021 03:26 15,7 C 15,0 C 13,9 C 92 % 1017,3 hPa 0,0 l/m 0 min 0 min 0 W/m 6,4 km/h (2 Bft) 97,83 %
24.09.2021 03:28 15,8 C 15,0 C 13,9 C 92 % 1017,3 hPa 0,0 l/m 0 min 0 min 0 W/m 9,7 km/h (2 Bft) 97,87 %
24.09.2021 03:30 15,7 C 15,0 C 13,9 C 92 % 1017,3 hPa 0,0 l/m 0 min 0 min 0 W/m 9,7 km/h (2 Bft) 100,00 %
24.09.2021 03:32 15,7 C 15,0 C 13,4 C 92 % 1017,2 hPa 0,0 l/m 0 min 0 min 0 W/m 6,4 km/h (2 Bft) 100,00 %
24.09.2021 03:34 15,8 C 15,0 C 13,9 C 92 % 1017,2 hPa 0,0 l/m 0 min 0 min 0 W/m 6,4 km/h (2 Bft) 100,00 %
24.09.2021 03:36 15,7 C 15,0 C 13,9 C 92 % 1017,2 hPa 0,0 l/m 0 min 0 min 0 W/m 6,4 km/h (2 Bft) 100,00 %
24.09.2021 03:38 15,7 C 15,0 C 13,9 C 92 % 1017,2 hPa 0,0 l/m 0 min 0 min 0 W/m 16,1 km/h (3 Bft) 97,83 %
24.09.2021 03:40 15,7 C 15,0 C 13,9 C 92 % 1017,2 hPa 0,0 l/m 0 min 0 min 0 W/m 6,4 km/h (2 Bft) 100,00 %
24.09.2021 03:42 15,7 C 15,0 C 13,9 C 92 % 1017,2 hPa 0,0 l/m 0 min 0 min 0 W/m 6,4 km/h (2 Bft) 100,00 %
24.09.2021 03:44 15,7 C 15,0 C 13,9 C 92 % 1017,1 hPa 0,0 l/m 0 min 0 min 0 W/m 12,9 km/h (3 Bft) 95,74 %
24.09.2021 03:46 15,7 C 15,0 C 13,9 C 92 % 1017,1 hPa 0,0 l/m 0 min 0 min 0 W/m 6,4 km/h (2 Bft) 97,87 %
24.09.2021 03:48 15,8 C 15,0 C 13,9 C 92 % 1017,1 hPa 0,0 l/m 0 min 0 min 0 W/m 3,2 km/h (1 Bft) 97,87 %
24.09.2021 03:50 15,8 C 15,0 C 13,9 C 92 % 1017,1 hPa 0,0 l/m 0 min 0 min 0 W/m 3,2 km/h (1 Bft) 97,83 %
24.09.2021 03:52 15,8 C 15,0 C 13,9 C 92 % 1017,2 hPa 0,0 l/m 0 min 0 min 0 W/m 12,9 km/h (3 Bft) 97,87 %
24.09.2021 03:54 15,7 C 15,0 C 13,9 C 92 % 1017,2 hPa 0,0 l/m 0 min 0 min 0 W/m 6,4 km/h (2 Bft) 97,87 %
24.09.2021 03:56 15,7 C 15,0 C 13,9 C 92 % 1017,2 hPa 0,0 l/m 0 min 0 min 0 W/m 6,4 km/h (2 Bft) 97,87 %
24.09.2021 03:58 15,7 C 15,0 C 13,9 C 92 % 1017,2 hPa 0,0 l/m 0 min 0 min 0 W/m 6,4 km/h (2 Bft) 97,87 %
24.09.2021 04:00 15,7 C 15,0 C 13,9 C 92 % 1017,2 hPa 0,0 l/m 0 min 0 min 0 W/m 3,2 km/h (1 Bft) 97,87 %
24.09.2021 04:05 15,7 C 15,0 C 13,9 C 92 % 1017,1 hPa 0,0 l/m 0 min 0 min 0 W/m 6,4 km/h (2 Bft) 100,00 %
24.09.2021 04:06 15,7 C 15,0 C 13,9 C 92 % 1017,1 hPa 0,0 l/m 0 min 0 min 0 W/m 6,4 km/h (2 Bft) 95,65 %
24.09.2021 04:08 15,7 C 15,0 C 13,9 C 92 % 1017,1 hPa 0,0 l/m 0 min 0 min 0 W/m 12,9 km/h (3 Bft) 97,87 %
24.09.2021 04:10 15,7 C 15,0 C 13,9 C 92 % 1017,1 hPa 0,0 l/m 0 min 0 min 0 W/m 6,4 km/h (2 Bft) 97,87 %
24.09.2021 04:12 15,7 C 15,0 C 13,9 C 92 % 1017,0 hPa 0,0 l/m 0 min 0 min 0 W/m 12,9 km/h (3 Bft) 97,87 %
24.09.2021 04:14 15,7 C 15,0 C 13,9 C 92 % 1017,1 hPa 0,0 l/m 0 min 0 min 0 W/m 6,4 km/h (2 Bft) 97,83 %
24.09.2021 04:16 15,7 C 15,0 C 13,9 C 92 % 1017,2 hPa 0,0 l/m 0 min 0 min 0 W/m 6,4 km/h (2 Bft) 97,87 %
24.09.2021 04:18 15,7 C 15,0 C 13,9 C 92 % 1017,1 hPa 0,0 l/m 0 min 0 min 0 W/m 3,2 km/h (1 Bft) 97,87 %
24.09.2021 04:20 15,7 C 15,0 C 13,9 C 92 % 1017,1 hPa 0,0 l/m 0 min 0 min 0 W/m 6,4 km/h (2 Bft) 95,74 %
24.09.2021 04:22 15,7 C 15,0 C 13,9 C 92 % 1017,1 hPa 0,0 l/m 0 min 0 min 0 W/m 6,4 km/h (2 Bft) 95,74 %
24.09.2021 04:24 15,7 C 15,0 C 13,9 C 92 % 1017,1 hPa 0,0 l/m 0 min 0 min 0 W/m 6,4 km/h (2 Bft) 97,83 %
24.09.2021 04:26 15,7 C 15,0 C 13,9 C 92 % 1017,1 hPa 0,0 l/m 0 min 0 min 0 W/m 6,4 km/h (2 Bft) 97,87 %
24.09.2021 04:28 15,7 C 15,0 C 13,9 C 92 % 1017,1 hPa 0,0 l/m 0 min 0 min 0 W/m 6,4 km/h (2 Bft) 97,87 %
24.09.2021 04:30 15,7 C 15,0 C 13,9 C 92 % 1017,0 hPa 0,0 l/m 0 min 0 min 0 W/m 12,9 km/h (3 Bft) 97,87 %
24.09.2021 04:32 15,7 C 15,0 C 13,9 C 92 % 1017,0 hPa 0,0 l/m 0 min 0 min 0 W/m 6,4 km/h (2 Bft) 97,87 %
24.09.2021 04:34 15,7 C 15,0 C 13,9 C 92 % 1017,1 hPa 0,0 l/m 0 min 0 min 0 W/m 6,4 km/h (2 Bft) 100,00 %
24.09.2021 04:36 15,7 C 15,0 C 13,9 C 92 % 1017,0 hPa 0,0 l/m 0 min 0 min 0 W/m 9,7 km/h (2 Bft) 100,00 %
24.09.2021 04:38 15,7 C 15,0 C 13,9 C 92 % 1017,0 hPa 0,0 l/m 0 min 0 min 0 W/m 3,2 km/h (1 Bft) 100,00 %
24.09.2021 04:40 15,7 C 15,0 C 13,9 C 92 % 1016,9 hPa 0,0 l/m 0 min 0 min 0 W/m 12,9 km/h (3 Bft) 95,74 %
24.09.2021 04:42 15,7 C 15,0 C 13,9 C 92 % 1017,0 hPa 0,0 l/m 0 min 0 min 0 W/m 16,1 km/h (3 Bft) 100,00 %
24.09.2021 04:44 15,7 C 15,0 C 13,9 C 92 % 1017,0 hPa 0,0 l/m 0 min 0 min 0 W/m 9,7 km/h (2 Bft) 100,00 %
24.09.2021 04:46 15,7 C 15,0 C 13,9 C 92 % 1017,0 hPa 0,0 l/m 0 min 0 min 0 W/m 3,2 km/h (1 Bft) 97,87 %
24.09.2021 04:48 15,7 C 15,0 C 13,9 C 92 % 1017,0 hPa 0,0 l/m 0 min 0 min 0 W/m 3,2 km/h (1 Bft) 100,00 %
24.09.2021 04:50 15,7 C 15,0 C 13,9 C 93 % 1017,0 hPa 0,0 l/m 0 min 0 min 0 W/m 3,2 km/h (1 Bft) 97,87 %
24.09.2021 04:52 15,7 C 15,0 C 13,9 C 93 % 1017,1 hPa 0,0 l/m 0 min 0 min 0 W/m 6,4 km/h (2 Bft) 95,74 %
24.09.2021 04:54 15,7 C 15,0 C 13,9 C 93 % 1017,1 hPa 0,0 l/m 0 min 0 min 0 W/m 3,2 km/h (1 Bft) 97,87 %
24.09.2021 04:56 15,7 C 15,0 C 13,9 C 93 % 1017,1 hPa 0,0 l/m 0 min 0 min 0 W/m 6,4 km/h (2 Bft) 97,87 %
24.09.2021 04:58 15,7 C 15,0 C 13,9 C 93 % 1017,1 hPa 0,0 l/m 0 min 0 min 0 W/m 6,4 km/h (2 Bft) 97,87 %
24.09.2021 05:00 15,7 C 15,0 C 13,9 C 93 % 1017,0 hPa 0,0 l/m 0 min 0 min 0 W/m 3,2 km/h (1 Bft) 97,87 %
24.09.2021 05:02 15,7 C 15,0 C 13,9 C 93 % 1017,0 hPa 0,0 l/m 0 min 0 min 0 W/m 6,4 km/h (2 Bft) 97,83 %
24.09.2021 05:04 15,7 C 15,0 C 13,9 C 93 % 1017,0 hPa 0,0 l/m 0 min 0 min 0 W/m 6,4 km/h (2 Bft) 95,74 %
24.09.2021 05:06 15,7 C 15,0 C 13,9 C 93 % 1017,0 hPa 0,0 l/m 0 min 0 min 0 W/m 6,4 km/h (2 Bft) 97,87 %
24.09.2021 05:08 15,7 C 15,0 C 13,9 C 93 % 1017,0 hPa 0,0 l/m 0 min 0 min 0 W/m 6,4 km/h (2 Bft) 97,87 %
24.09.2021 05:10 15,7 C 15,0 C 13,9 C 93 % 1017,1 hPa 0,0 l/m 0 min 0 min 0 W/m 6,4 km/h (2 Bft) 97,87 %
24.09.2021 05:12 15,7 C 15,0 C 13,9 C 93 % 1017,0 hPa 0,0 l/m 0 min 0 min 0 W/m 6,4 km/h (2 Bft) 97,83 %
24.09.2021 05:14 15,7 C 15,0 C 13,9 C 93 % 1017,1 hPa 0,0 l/m 0 min 0 min 0 W/m 6,4 km/h (2 Bft) 93,62 %
24.09.2021 05:16 15,6 C 15,0 C 13,9 C 93 % 1017,1 hPa 0,0 l/m 0 min 0 min 0 W/m 9,7 km/h (2 Bft) 95,74 %
24.09.2021 05:18 15,7 C 15,0 C 13,9 C 93 % 1017,1 hPa 0,0 l/m 0 min 0 min 0 W/m 6,4 km/h (2 Bft) 97,87 %
24.09.2021 05:20 15,6 C 15,0 C 13,9 C 93 % 1017,0 hPa 0,0 l/m 0 min 0 min 0 W/m 3,2 km/h (1 Bft) 95,74 %
24.09.2021 05:22 15,6 C 15,0 C 13,9 C 93 % 1017,0 hPa 0,0 l/m 0 min 0 min 0 W/m 6,4 km/h (2 Bft) 93,62 %
24.09.2021 05:24 15,6 C 15,0 C 13,9 C 93 % 1017,0 hPa 0,0 l/m 0 min 0 min 0 W/m 3,2 km/h (1 Bft) 100,00 %
24.09.2021 05:26 15,6 C 15,0 C 13,9 C 93 % 1017,0 hPa 0,0 l/m 0 min 0 min 0 W/m 6,4 km/h (2 Bft) 97,87 %
24.09.2021 05:28 15,7 C 15,0 C 13,9 C 93 % 1017,0 hPa 0,0 l/m 0 min 0 min 0 W/m 3,2 km/h (1 Bft) 97,87 %
24.09.2021 05:30 15,6 C 15,0 C 13,9 C 93 % 1017,0 hPa 0,0 l/m 0 min 0 min 0 W/m 6,4 km/h (2 Bft) 97,87 %
24.09.2021 05:32 15,6 C 15,0 C 13,9 C 93 % 1017,0 hPa 0,0 l/m 0 min 0 min 0 W/m 3,2 km/h (1 Bft) 97,87 %
24.09.2021 05:34 15,6 C 15,0 C 13,9 C 93 % 1017,0 hPa 0,0 l/m 0 min 0 min 0 W/m 12,9 km/h (3 Bft) 97,87 %
24.09.2021 05:36 15,6 C 15,0 C 13,9 C 93 % 1017,0 hPa 0,0 l/m 0 min 0 min 0 W/m 6,4 km/h (2 Bft) 97,83 %
24.09.2021 05:40 15,6 C 15,0 C 13,9 C 93 % 1017,0 hPa 0,0 l/m 0 min 0 min 0 W/m 6,4 km/h (2 Bft) 98,18 %
24.09.2021 05:42 15,6 C 15,0 C 13,9 C 93 % 1017,0 hPa 0,0 l/m 0 min 0 min 0 W/m 6,4 km/h (2 Bft) 97,87 %
24.09.2021 05:44 15,6 C 15,0 C 13,9 C 93 % 1017,1 hPa 0,0 l/m 0 min 0 min 0 W/m 6,4 km/h (2 Bft) 97,83 %
24.09.2021 05:46 15,6 C 15,0 C 13,9 C 93 % 1017,0 hPa 0,0 l/m 0 min 0 min 0 W/m 6,4 km/h (2 Bft) 97,87 %
24.09.2021 05:48 15,6 C 15,0 C 13,9 C 93 % 1017,1 hPa 0,0 l/m 0 min 0 min 0 W/m 9,7 km/h (2 Bft) 95,74 %
24.09.2021 05:50 15,6 C 15,0 C 13,9 C 93 % 1017,1 hPa 0,0 l/m 0 min 0 min 0 W/m 6,4 km/h (2 Bft) 97,87 %
24.09.2021 05:52 15,6 C 15,0 C 13,9 C 93 % 1017,0 hPa 0,0 l/m 0 min 0 min 0 W/m 6,4 km/h (2 Bft) 97,87 %
24.09.2021 05:54 15,6 C 15,0 C 13,9 C 93 % 1017,0 hPa 0,0 l/m 0 min 0 min 0 W/m 6,4 km/h (2 Bft) 97,87 %
24.09.2021 05:56 15,6 C 15,0 C 13,9 C 93 % 1017,0 hPa 0,0 l/m 0 min 0 min 0 W/m 3,2 km/h (1 Bft) 97,83 %
24.09.2021 05:58 15,6 C 15,0 C 13,9 C 93 % 1017,1 hPa 0,0 l/m 0 min 0 min 0 W/m 6,4 km/h (2 Bft) 97,87 %
24.09.2021 06:00 15,6 C 15,0 C 13,9 C 93 % 1017,1 hPa 0,0 l/m 0 min 0 min 0 W/m 3,2 km/h (1 Bft) 97,87 %
24.09.2021 06:02 15,6 C 15,0 C 13,9 C 94 % 1017,1 hPa 0,0 l/m 0 min 0 min 0 W/m 3,2 km/h (1 Bft) 97,87 %
24.09.2021 06:04 15,6 C 15,0 C 13,9 C 94 % 1017,1 hPa 0,0 l/m 0 min 0 min 0 W/m 6,4 km/h (2 Bft) 97,87 %
24.09.2021 06:08 15,6 C 15,0 C 13,9 C 94 % 1017,1 hPa 0,0 l/m 0 min 0 min 0 W/m 6,4 km/h (2 Bft) 96,77 %
24.09.2021 06:10 15,6 C 15,0 C 13,9 C 93 % 1017,1 hPa 0,0 l/m 0 min 0 min 0 W/m 9,7 km/h (2 Bft) 100,00 %
24.09.2021 06:12 15,5 C 15,0 C 13,9 C 93 % 1017,1 hPa 0,0 l/m 0 min 0 min 0 W/m 6,4 km/h (2 Bft) 100,00 %
24.09.2021 06:14 15,5 C 15,0 C 13,9 C 93 % 1017,1 hPa 0,0 l/m 0 min 0 min 0 W/m 6,4 km/h (2 Bft) 100,00 %
24.09.2021 06:16 15,5 C 15,0 C 13,9 C 93 % 1017,1 hPa 0,0 l/m 0 min 0 min 0 W/m 3,2 km/h (1 Bft) 97,87 %
24.09.2021 06:18 15,5 C 15,0 C 13,9 C 93 % 1017,1 hPa 0,0 l/m 0 min 0 min 0 W/m 3,2 km/h (1 Bft) 100,00 %
24.09.2021 06:20 15,5 C 15,0 C 13,9 C 93 % 1017,0 hPa 0,0 l/m 0 min 0 min 0 W/m 6,4 km/h (2 Bft) 100,00 %
24.09.2021 06:22 15,5 C 15,0 C 13,9 C 93 % 1017,1 hPa 0,0 l/m 0 min 0 min 0 W/m 3,2 km/h (1 Bft) 100,00 %
24.09.2021 06:24 15,5 C 15,0 C 13,9 C 93 % 1017,1 hPa 0,0 l/m 0 min 0 min 0 W/m 6,4 km/h (2 Bft) 100,00 %
24.09.2021 06:26 15,5 C 15,0 C 13,9 C 93 % 1017,1 hPa 0,0 l/m 0 min 0 min 0 W/m 6,4 km/h (2 Bft) 97,87 %
24.09.2021 06:28 15,5 C 15,0 C 13,9 C 94 % 1017,2 hPa 0,0 l/m 0 min 0 min 0 W/m 6,4 km/h (2 Bft) 100,00 %
24.09.2021 06:30 15,5 C 15,0 C 13,9 C 94 % 1017,1 hPa 0,0 l/m 0 min 0 min 0 W/m 3,2 km/h (1 Bft) 97,83 %
24.09.2021 06:32 15,5 C 14,4 C 13,9 C 94 % 1017,1 hPa 0,0 l/m 0 min 0 min 0 W/m 12,9 km/h (3 Bft) 97,87 %
24.09.2021 06:34 15,5 C 14,4 C 13,9 C 94 % 1017,1 hPa 0,0 l/m 0 min 0 min 0 W/m 6,4 km/h (2 Bft) 95,74 %
24.09.2021 06:36 15,5 C 14,4 C 13,9 C 94 % 1017,2 hPa 0,0 l/m 0 min 0 min 0 W/m 6,4 km/h (2 Bft) 97,87 %
24.09.2021 06:38 15,4 C 14,4 C 13,9 C 94 % 1017,2 hPa 0,0 l/m 0 min 0 min 0 W/m 6,4 km/h (2 Bft) 97,87 %
24.09.2021 06:40 15,4 C 14,4 C 13,4 C 94 % 1017,2 hPa 0,0 l/m 0 min 0 min 0 W/m 12,9 km/h (3 Bft) 97,87 %
24.09.2021 06:42 15,4 C 14,4 C 13,9 C 94 % 1017,2 hPa 0,0 l/m 0 min 0 min 0 W/m 3,2 km/h (1 Bft) 95,65 %
24.09.2021 06:44 15,4 C 14,4 C 13,9 C 94 % 1017,2 hPa 0,0 l/m 0 min 0 min 0 W/m 6,4 km/h (2 Bft) 97,87 %
24.09.2021 06:46 15,4 C 14,4 C 13,4 C 94 % 1017,2 hPa 0,0 l/m 0 min 0 min 0 W/m 6,4 km/h (2 Bft) 95,74 %
24.09.2021 06:48 15,4 C 14,4 C 13,4 C 94 % 1017,2 hPa 0,0 l/m 0 min 0 min 0 W/m 9,7 km/h (2 Bft) 95,74 %
24.09.2021 06:50 15,4 C 14,4 C 13,4 C 94 % 1017,2 hPa 0,0 l/m 0 min 0 min 0 W/m 9,7 km/h (2 Bft) 95,74 %
24.09.2021 06:52 15,4 C 14,4 C 13,4 C 94 % 1017,3 hPa 0,0 l/m 0 min 0 min 0 W/m 16,1 km/h (3 Bft) 93,62 %
24.09.2021 06:54 15,3 C 14,4 C 13,4 C 94 % 1017,3 hPa 0,0 l/m 0 min 0 min 0 W/m 9,7 km/h (2 Bft) 93,48 %
24.09.2021 06:56 15,3 C 14,4 C 13,4 C 94 % 1017,3 hPa 0,0 l/m 0 min 0 min 0 W/m 12,9 km/h (3 Bft) 95,74 %
24.09.2021 06:58 15,3 C 14,4 C 13,4 C 94 % 1017,3 hPa 0,0 l/m 0 min 0 min 0 W/m 6,4 km/h (2 Bft) 95,74 %
24.09.2021 07:00 15,3 C 14,4 C 13,4 C 94 % 1017,3 hPa 0,0 l/m 0 min 0 min 0 W/m 6,4 km/h (2 Bft) 95,74 %
24.09.2021 07:02 15,3 C 14,4 C 13,4 C 94 % 1017,2 hPa 0,0 l/m 0 min 0 min 0 W/m 6,4 km/h (2 Bft) 93,62 %
24.09.2021 07:04 15,2 C 14,4 C 13,4 C 94 % 1017,2 hPa 0,0 l/m 0 min 0 min 0 W/m 6,4 km/h (2 Bft) 95,74 %
24.09.2021 07:06 15,2 C 14,4 C 13,4 C 94 % 1017,2 hPa 0,0 l/m 0 min 0 min 0 W/m 12,9 km/h (3 Bft) 95,65 %
24.09.2021 07:08 15,2 C 14,4 C 13,4 C 94 % 1017,3 hPa 0,0 l/m 0 min 0 min 0 W/m 6,4 km/h (2 Bft) 95,74 %
24.09.2021 07:10 15,1 C 14,4 C 13,4 C 94 % 1017,3 hPa 0,0 l/m 0 min 0 min 0 W/m 16,1 km/h (3 Bft) 93,62 %
24.09.2021 07:12 15,1 C 14,4 C 13,4 C 94 % 1017,3 hPa 0,0 l/m 0 min 0 min 0 W/m 6,4 km/h (2 Bft) 93,62 %
24.09.2021 07:14 15,1 C 14,4 C 13,4 C 94 % 1017,3 hPa 0,0 l/m 0 min 0 min 0 W/m 6,4 km/h (2 Bft) 95,74 %
24.09.2021 07:16 15,1 C 14,4 C 13,4 C 94 % 1017,3 hPa 0,0 l/m 0 min 0 min 0 W/m 6,4 km/h (2 Bft) 95,74 %
24.09.2021 07:18 15,1 C 14,4 C 13,4 C 94 % 1017,2 hPa 0,0 l/m 0 min 0 min 0 W/m 6,4 km/h (2 Bft) 93,48 %
24.09.2021 07:20 15,1 C 14,4 C 13,4 C 94 % 1017,2 hPa 0,0 l/m 0 min 0 min 0 W/m 6,4 km/h (2 Bft) 97,87 %
24.09.2021 07:22 15,0 C 14,4 C 13,4 C 94 % 1017,2 hPa 0,0 l/m 0 min 0 min 0 W/m 12,9 km/h (3 Bft) 97,87 %
24.09.2021 07:24 15,0 C 14,4 C 13,4 C 94 % 1017,2 hPa 0,0 l/m 0 min 0 min 0 W/m 6,4 km/h (2 Bft) 100,00 %
24.09.2021 07:26 15,0 C 14,4 C 13,4 C 94 % 1017,2 hPa 0,0 l/m 0 min 0 min 0 W/m 16,1 km/h (3 Bft) 100,00 %
24.09.2021 07:28 15,0 C 14,4 C 13,4 C 95 % 1017,2 hPa 0,0 l/m 0 min 0 min 0 W/m 9,7 km/h (2 Bft) 100,00 %
24.09.2021 07:30 15,0 C 14,4 C 13,4 C 95 % 1017,2 hPa 0,0 l/m 0 min 0 min 0 W/m 16,1 km/h (3 Bft) 97,83 %
24.09.2021 07:32 15,0 C 14,4 C 13,4 C 95 % 1017,2 hPa 0,0 l/m 0 min 0 min 0 W/m 9,7 km/h (2 Bft) 100,00 %
24.09.2021 07:34 15,0 C 14,4 C 13,4 C 95 % 1017,3 hPa 0,0 l/m 0 min 0 min 0 W/m 19,3 km/h (3 Bft) 100,00 %
24.09.2021 07:36 14,9 C 14,4 C 13,4 C 95 % 1017,3 hPa 0,0 l/m 0 min 0 min 0 W/m 12,9 km/h (3 Bft) 100,00 %
24.09.2021 07:38 14,9 C 14,4 C 13,4 C 95 % 1017,3 hPa 0,0 l/m 0 min 0 min 0 W/m 12,9 km/h (3 Bft) 100,00 %
24.09.2021 07:40 14,9 C 14,4 C 13,4 C 95 % 1017,3 hPa 0,0 l/m 0 min 0 min 0 W/m 9,7 km/h (2 Bft) 100,00 %
24.09.2021 07:42 14,9 C 14,4 C 13,4 C 95 % 1017,3 hPa 0,0 l/m 0 min 0 min 0 W/m 12,9 km/h (3 Bft) 100,00 %
24.09.2021 07:44 14,9 C 14,4 C 13,4 C 95 % 1017,3 hPa 0,0 l/m 0 min 0 min 0 W/m 12,9 km/h (3 Bft) 100,00 %
24.09.2021 07:46 14,9 C 14,4 C 13,4 C 95 % 1017,3 hPa 0,0 l/m 0 min 0 min 0 W/m 12,9 km/h (3 Bft) 100,00 %
24.09.2021 07:48 14,9 C 14,4 C 13,4 C 95 % 1017,4 hPa 0,0 l/m 0 min 0 min 0 W/m 6,4 km/h (2 Bft) 100,00 %
24.09.2021 07:50 14,9 C 14,4 C 13,4 C 95 % 1017,3 hPa 0,0 l/m 0 min 0 min 3 W/m 12,9 km/h (3 Bft) 100,00 %
24.09.2021 07:52 14,9 C 14,4 C 13,4 C 95 % 1017,3 hPa 0,0 l/m 0 min 0 min 5 W/m 16,1 km/h (3 Bft) 97,87 %
24.09.2021 07:54 14,8 C 14,4 C 13,4 C 95 % 1017,3 hPa 0,0 l/m 0 min 0 min 5 W/m 16,1 km/h (3 Bft) 100,00 %
24.09.2021 07:56 14,8 C 13,9 C 13,4 C 95 % 1017,3 hPa 0,0 l/m 0 min 0 min 7 W/m 12,9 km/h (3 Bft) 100,00 %
24.09.2021 07:58 14,8 C 14,4 C 13,4 C 95 % 1017,2 hPa 0,0 l/m 0 min 0 min 7 W/m 6,4 km/h (2 Bft) 100,00 %
24.09.2021 08:00 14,8 C 14,4 C 13,4 C 95 % 1017,2 hPa 0,0 l/m 0 min 0 min 7 W/m 12,9 km/h (3 Bft) 97,87 %
24.09.2021 08:02 14,8 C 13,9 C 13,4 C 95 % 1017,3 hPa 0,0 l/m 0 min 0 min 7 W/m 12,9 km/h (3 Bft) 100,00 %
24.09.2021 08:04 14,8 C 13,9 C 13,4 C 95 % 1017,2 hPa 0,0 l/m 0 min 0 min 10 W/m 9,7 km/h (2 Bft) 100,00 %
24.09.2021 08:06 14,8 C 13,9 C 13,4 C 95 % 1017,2 hPa 0,0 l/m 0 min 0 min 11 W/m 12,9 km/h (3 Bft) 97,83 %
24.09.2021 08:08 14,7 C 13,9 C 13,4 C 95 % 1017,2 hPa 0,0 l/m 0 min 0 min 10 W/m 12,9 km/h (3 Bft) 97,67 %
24.09.2021 08:10 14,7 C 13,9 C 13,4 C 95 % 1017,3 hPa 0,0 l/m 0 min 0 min 9 W/m 12,9 km/h (3 Bft) 100,00 %
24.09.2021 08:12 14,7 C 13,9 C 13,4 C 95 % 1017,2 hPa 0,0 l/m 0 min 0 min 11 W/m 6,4 km/h (2 Bft) 100,00 %
24.09.2021 08:14 14,8 C 13,9 C 13,4 C 95 % 1017,2 hPa 0,0 l/m 0 min 0 min 12 W/m 6,4 km/h (2 Bft) 97,87 %
24.09.2021 08:16 14,7 C 14,4 C 13,4 C 95 % 1017,3 hPa 0,0 l/m 0 min 0 min 12 W/m 12,9 km/h (3 Bft) 97,87 %
24.09.2021 08:18 14,7 C 14,4 C 13,4 C 95 % 1017,2 hPa 0,0 l/m 0 min 0 min 12 W/m 19,3 km/h (3 Bft) 97,87 %
24.09.2021 08:20 14,7 C 13,9 C 13,4 C 95 % 1017,2 hPa 0,0 l/m 0 min 0 min 14 W/m 12,9 km/h (3 Bft) 97,83 %
24.09.2021 08:22 14,7 C 13,9 C 13,4 C 95 % 1017,2 hPa 0,0 l/m 0 min 0 min 17 W/m 16,1 km/h (3 Bft) 97,87 %
24.09.2021 08:24 14,6 C 13,9 C 13,4 C 95 % 1017,2 hPa 0,0 l/m 0 min 0 min 22 W/m 16,1 km/h (3 Bft) 97,87 %
24.09.2021 08:26 14,6 C 13,9 C 13,4 C 95 % 1017,2 hPa 0,0 l/m 0 min 0 min 25 W/m 9,7 km/h (2 Bft) 97,87 %
24.09.2021 08:28 14,6 C 13,9 C 13,4 C 95 % 1017,2 hPa 0,0 l/m 0 min 0 min 26 W/m 6,4 km/h (2 Bft) 97,87 %
24.09.2021 08:30 14,6 C 13,9 C 13,4 C 95 % 1017,2 hPa 0,0 l/m 0 min 0 min 24 W/m 12,9 km/h (3 Bft) 95,74 %
24.09.2021 08:32 14,6 C 13,9 C 13,4 C 95 % 1017,2 hPa 0,0 l/m 0 min 0 min 23 W/m 12,9 km/h (3 Bft) 97,83 %
24.09.2021 08:34 14,6 C 14,4 C 13,4 C 95 % 1017,1 hPa 0,0 l/m 0 min 0 min 23 W/m 9,7 km/h (2 Bft) 95,74 %
24.09.2021 08:36 14,6 C 13,9 C 13,4 C 95 % 1017,2 hPa 0,0 l/m 0 min 0 min 24 W/m 16,1 km/h (3 Bft) 95,74 %
24.09.2021 08:38 14,6 C 14,4 C 13,4 C 95 % 1017,1 hPa 0,0 l/m 0 min 0 min 24 W/m 6,4 km/h (2 Bft) 97,87 %
24.09.2021 08:40 14,6 C 14,4 C 13,4 C 95 % 1017,1 hPa 0,0 l/m 0 min 0 min 25 W/m 3,2 km/h (1 Bft) 97,87 %
24.09.2021 08:42 14,7 C 14,4 C 13,4 C 95 % 1017,2 hPa 0,0 l/m 0 min 0 min 25 W/m 6,4 km/h (2 Bft) 97,87 %
24.09.2021 08:44 14,7 C 14,4 C 13,4 C 95 % 1017,2 hPa 0,0 l/m 0 min 0 min 24 W/m 16,1 km/h (3 Bft) 97,83 %
24.09.2021 08:45 14,6 C 14,4 C 13,4 C 95 % 1017,2 hPa 0,0 l/m 0 min 0 min 24 W/m 16,1 km/h (3 Bft) 95,74 %
24.09.2021 08:48 14,7 C 14,4 C 13,4 C 95 % 1017,2 hPa 0,0 l/m 0 min 0 min 25 W/m 22,5 km/h (4 Bft) 95,74 %
24.09.2021 08:50 14,7 C 14,4 C 13,4 C 95 % 1017,2 hPa 0,0 l/m 0 min 0 min 22 W/m 16,1 km/h (3 Bft) 95,74 %
24.09.2021 08:52 14,7 C 13,9 C 13,4 C 95 % 1017,2 hPa 0,0 l/m 0 min 0 min 22 W/m 12,9 km/h (3 Bft) 93,62 %
24.09.2021 08:54 14,7 C 14,4 C 13,4 C 95 % 1017,1 hPa 0,0 l/m 0 min 0 min 28 W/m 12,9 km/h (3 Bft) 93,62 %
24.09.2021 08:56 14,7 C 14,4 C 13,4 C 95 % 1017,2 hPa 0,0 l/m 0 min 0 min 26 W/m 16,1 km/h (3 Bft) 95,65 %
24.09.2021 08:58 14,7 C 14,4 C 13,4 C 95 % 1017,2 hPa 0,0 l/m 0 min 0 min 28 W/m 9,7 km/h (2 Bft) 95,74 %
24.09.2021 09:00 14,7 C 14,4 C 13,4 C 95 % 1017,2 hPa 0,0 l/m 0 min 0 min 34 W/m 16,1 km/h (3 Bft) 95,74 %
24.09.2021 09:02 14,8 C 14,4 C 13,4 C 95 % 1017,2 hPa 0,0 l/m 0 min 0 min 39 W/m 12,9 km/h (3 Bft) 95,74 %
24.09.2021 09:04 14,8 C 14,4 C 13,4 C 95 % 1017,2 hPa 0,0 l/m 0 min 0 min 39 W/m 12,9 km/h (3 Bft) 97,87 %
24.09.2021 09:06 14,8 C 14,4 C 13,4 C 95 % 1017,3 hPa 0,0 l/m 0 min 0 min 39 W/m 19,3 km/h (3 Bft) 97,87 %
24.09.2021 09:08 14,8 C 14,4 C 13,4 C 95 % 1017,3 hPa 0,0 l/m 0 min 0 min 33 W/m 9,7 km/h (2 Bft) 97,83 %
24.09.2021 09:10 14,8 C 14,4 C 13,4 C 96 % 1017,3 hPa 0,0 l/m 0 min 0 min 33 W/m 9,7 km/h (2 Bft) 95,74 %
24.09.2021 09:12 14,8 C 14,4 C 13,9 C 96 % 1017,3 hPa 0,0 l/m 0 min 0 min 38 W/m 12,9 km/h (3 Bft) 95,74 %
24.09.2021 09:14 14,8 C 14,4 C 13,9 C 96 % 1017,3 hPa 0,0 l/m 0 min 0 min 41 W/m 6,4 km/h (2 Bft) 97,87 %
24.09.2021 09:16 14,9 C 14,4 C 13,9 C 96 % 1017,3 hPa 0,0 l/m 0 min 0 min 40 W/m 19,3 km/h (3 Bft) 97,87 %
24.09.2021 09:18 14,9 C 14,4 C 13,9 C 96 % 1017,3 hPa 0,0 l/m 0 min 0 min 41 W/m 22,5 km/h (4 Bft) 100,00 %
24.09.2021 09:20 14,9 C 14,4 C 13,9 C 96 % 1017,3 hPa 0,0 l/m 0 min 0 min 40 W/m 6,4 km/h (2 Bft) 97,83 %
24.09.2021 09:22 14,9 C 14,4 C 13,9 C 95 % 1017,3 hPa 0,0 l/m 0 min 0 min 47 W/m 16,1 km/h (3 Bft) 97,87 %
24.09.2021 09:24 14,9 C 14,4 C 13,9 C 95 % 1017,3 hPa 0,0 l/m 0 min 0 min 41 W/m 12,9 km/h (3 Bft) 97,87 %
24.09.2021 09:26 14,9 C 14,4 C 13,9 C 95 % 1017,3 hPa 0,0 l/m 0 min 0 min 40 W/m 12,9 km/h (3 Bft) 97,87 %
24.09.2021 09:28 14,9 C 14,4 C 13,9 C 95 % 1017,3 hPa 0,0 l/m 0 min 0 min 38 W/m 6,4 km/h (2 Bft) 95,74 %
24.09.2021 09:30 14,9 C 14,4 C 13,9 C 95 % 1017,3 hPa 0,0 l/m 0 min 0 min 39 W/m 12,9 km/h (3 Bft) 97,87 %
24.09.2021 09:32 14,9 C 14,4 C 13,9 C 95 % 1017,3 hPa 0,0 l/m 0 min 0 min 40 W/m 16,1 km/h (3 Bft) 95,65 %
24.09.2021 09:34 14,9 C 14,4 C 13,9 C 95 % 1017,3 hPa 0,0 l/m 0 min 0 min 40 W/m 16,1 km/h (3 Bft) 97,87 %
24.09.2021 09:36 14,9 C 14,4 C 13,9 C 95 % 1017,3 hPa 0,0 l/m 0 min 0 min 42 W/m 19,3 km/h (3 Bft) 97,87 %
24.09.2021 09:38 14,9 C 14,4 C 13,9 C 95 % 1017,3 hPa 0,0 l/m 0 min 0 min 43 W/m 12,9 km/h (3 Bft) 97,87 %
24.09.2021 09:40 14,9 C 14,4 C 13,9 C 95 % 1017,3 hPa 0,0 l/m 0 min 0 min 44 W/m 16,1 km/h (3 Bft) 97,87 %
24.09.2021 09:42 15,0 C 14,4 C 13,9 C 95 % 1017,3 hPa 0,0 l/m 0 min 0 min 46 W/m 9,7 km/h (2 Bft) 97,87 %
24.09.2021 09:44 15,0 C 14,4 C 13,9 C 95 % 1017,3 hPa 0,0 l/m 0 min 0 min 44 W/m 6,4 km/h (2 Bft) 97,83 %
24.09.2021 09:46 15,0 C 14,4 C 13,9 C 95 % 1017,3 hPa 0,0 l/m 0 min 0 min 44 W/m 6,4 km/h (2 Bft) 95,74 %
24.09.2021 09:48 15,0 C 14,4 C 13,9 C 95 % 1017,3 hPa 0,0 l/m 0 min 0 min 48 W/m 12,9 km/h (3 Bft) 97,87 %
24.09.2021 09:50 15,0 C 14,4 C 13,9 C 95 % 1017,4 hPa 0,0 l/m 0 min 0 min 49 W/m 19,3 km/h (3 Bft) 95,74 %
24.09.2021 09:52 15,0 C 14,4 C 13,9 C 95 % 1017,4 hPa 0,0 l/m 0 min 0 min 46 W/m 12,9 km/h (3 Bft) 97,87 %
24.09.2021 09:54 15,0 C 14,4 C 13,9 C 95 % 1017,4 hPa 0,0 l/m 0 min 0 min 48 W/m 9,7 km/h (2 Bft) 97,83 %
24.09.2021 09:56 15,0 C 14,4 C 13,9 C 95 % 1017,5 hPa 0,0 l/m 0 min 0 min 50 W/m 12,9 km/h (3 Bft) 97,87 %
24.09.2021 09:58 15,0 C 14,4 C 13,9 C 96 % 1017,5 hPa 0,0 l/m 0 min 0 min 47 W/m 6,4 km/h (2 Bft) 97,87 %
24.09.2021 10:00 15,1 C 14,4 C 13,9 C 96 % 1017,5 hPa 0,0 l/m 0 min 0 min 55 W/m 16,1 km/h (3 Bft) 97,87 %
24.09.2021 10:02 15,1 C 14,4 C 13,9 C 96 % 1017,5 hPa 0,0 l/m 0 min 0 min 56 W/m 9,7 km/h (2 Bft) 97,92 %
24.09.2021 10:04 15,1 C 14,4 C 13,9 C 96 % 1017,5 hPa 0,0 l/m 0 min 0 min 57 W/m 6,4 km/h (2 Bft) 93,62 %
24.09.2021 10:06 15,1 C 14,4 C 13,9 C 95 % 1017,5 hPa 0,0 l/m 0 min 0 min 59 W/m 19,3 km/h (3 Bft) 100,00 %
24.09.2021 10:08 15,1 C 14,4 C 13,9 C 95 % 1017,5 hPa 0,0 l/m 0 min 0 min 54 W/m 6,4 km/h (2 Bft) 100,00 %
24.09.2021 10:10 15,1 C 15,0 C 13,9 C 95 % 1017,5 hPa 0,0 l/m 0 min 0 min 56 W/m 16,1 km/h (3 Bft) 100,00 %
24.09.2021 10:12 15,1 C 15,0 C 13,9 C 95 % 1017,5 hPa 0,0 l/m 0 min 0 min 65 W/m 6,4 km/h (2 Bft) 97,87 %
24.09.2021 10:14 15,1 C 15,0 C 13,9 C 95 % 1017,5 hPa 0,0 l/m 0 min 0 min 61 W/m 9,7 km/h (2 Bft) 100,00 %
24.09.2021 10:16 15,1 C 15,0 C 13,9 C 95 % 1017,6 hPa 0,0 l/m 0 min 0 min 64 W/m 12,9 km/h (3 Bft) 97,87 %
24.09.2021 10:18 15,1 C 15,0 C 13,9 C 95 % 1017,6 hPa 0,0 l/m 0 min 0 min 64 W/m 3,2 km/h (1 Bft) 100,00 %
24.09.2021 10:20 15,2 C 15,0 C 13,9 C 95 % 1017,7 hPa 0,0 l/m 0 min 0 min 68 W/m 12,9 km/h (3 Bft) 95,74 %
24.09.2021 10:22 15,2 C 15,0 C 14,5 C 95 % 1017,6 hPa 0,0 l/m 0 min 0 min 67 W/m 12,9 km/h (3 Bft) 100,00 %
24.09.2021 10:24 15,3 C 15,0 C 14,5 C 95 % 1017,7 hPa 0,0 l/m 0 min 0 min 59 W/m 3,2 km/h (1 Bft) 100,00 %
24.09.2021 10:26 15,2 C 15,0 C 14,5 C 95 % 1017,7 hPa 0,0 l/m 0 min 0 min 53 W/m 16,1 km/h (3 Bft) 100,00 %
24.09.2021 10:28 15,3 C 15,0 C 14,5 C 95 % 1017,7 hPa 0,0 l/m 0 min 0 min 45 W/m 6,4 km/h (2 Bft) 100,00 %
24.09.2021 10:30 15,3 C 15,0 C 14,5 C 95 % 1017,7 hPa 0,0 l/m 0 min 0 min 42 W/m 6,4 km/h (2 Bft) 100,00 %
24.09.2021 10:32 15,3 C 15,0 C 14,5 C 95 % 1017,7 hPa 0,0 l/m 0 min 0 min 41 W/m 6,4 km/h (2 Bft) 100,00 %
24.09.2021 10:34 15,3 C 15,0 C 14,5 C 95 % 1017,7 hPa 0,0 l/m 0 min 0 min 54 W/m 12,9 km/h (3 Bft) 100,00 %
24.09.2021 10:36 15,3 C 15,0 C 14,5 C 95 % 1017,8 hPa 0,0 l/m 0 min 0 min 57 W/m 12,9 km/h (3 Bft) 100,00 %
24.09.2021 10:38 15,3 C 15,0 C 14,5 C 95 % 1017,8 hPa 0,0 l/m 0 min 0 min 46 W/m 19,3 km/h (3 Bft) 100,00 %
24.09.2021 10:40 15,3 C 15,0 C 14,5 C 95 % 1017,8 hPa 0,0 l/m 0 min 0 min 41 W/m 9,7 km/h (2 Bft) 100,00 %
24.09.2021 10:42 15,3 C 15,0 C 14,5 C 95 % 1017,7 hPa 0,0 l/m 0 min 0 min 42 W/m 6,4 km/h (2 Bft) 100,00 %
24.09.2021 10:44 15,3 C 15,0 C 14,5 C 95 % 1017,7 hPa 0,0 l/m 0 min 0 min 48 W/m 16,1 km/h (3 Bft) 97,87 %
24.09.2021 10:46 15,4 C 15,0 C 14,5 C 95 % 1017,7 hPa 0,0 l/m 0 min 0 min 60 W/m 12,9 km/h (3 Bft) 97,87 %
24.09.2021 10:48 15,4 C 15,0 C 14,5 C 95 % 1017,7 hPa 0,0 l/m 0 min 0 min 68 W/m 9,7 km/h (2 Bft) 97,87 %
24.09.2021 10:50 15,4 C 15,0 C 14,5 C 95 % 1017,7 hPa 0,0 l/m 0 min 0 min 70 W/m 6,4 km/h (2 Bft) 95,74 %
24.09.2021 10:52 15,4 C 15,6 C 14,5 C 95 % 1017,7 hPa 0,0 l/m 0 min 0 min 102 W/m 3,2 km/h (1 Bft) 97,87 %
24.09.2021 10:54 15,4 C 15,6 C 14,5 C 95 % 1017,7 hPa 0,0 l/m 0 min 0 min 110 W/m 3,2 km/h (1 Bft) 95,65 %
24.09.2021 10:56 15,5 C 15,6 C 14,5 C 95 % 1017,7 hPa 0,0 l/m 0 min 0 min 112 W/m 6,4 km/h (2 Bft) 97,87 %
24.09.2021 10:58 15,5 C 15,6 C 14,5 C 95 % 1017,7 hPa 0,0 l/m 0 min 0 min 128 W/m 9,7 km/h (2 Bft) 97,87 %
24.09.2021 11:00 15,5 C 15,6 C 15,0 C 95 % 1017,7 hPa 0,0 l/m 0 min 0 min 154 W/m 16,1 km/h (3 Bft) 97,87 %
24.09.2021 11:02 15,6 C 16,1 C 15,0 C 95 % 1017,7 hPa 0,0 l/m 0 min 0 min 155 W/m 9,7 km/h (2 Bft) 95,74 %
24.09.2021 11:04 15,6 C 16,1 C 15,0 C 95 % 1017,6 hPa 0,0 l/m 0 min 0 min 162 W/m 6,4 km/h (2 Bft) 95,74 %
24.09.2021 11:06 15,7 C 16,1 C 15,0 C 95 % 1017,6 hPa 0,0 l/m 0 min 0 min 174 W/m 6,4 km/h (2 Bft) 97,83 %
24.09.2021 11:08 15,8 C 16,7 C 15,6 C 95 % 1017,6 hPa 0,0 l/m 0 min 0 min 214 W/m 6,4 km/h (2 Bft) 97,87 %
24.09.2021 11:10 15,9 C 16,7 C 15,6 C 95 % 1017,6 hPa 0,0 l/m 0 min 0 min 218 W/m 12,9 km/h (3 Bft) 95,74 %
24.09.2021 11:12 15,9 C 16,7 C 15,6 C 94 % 1017,6 hPa 0,0 l/m 0 min 0 min 228 W/m 12,9 km/h (3 Bft) 97,87 %
24.09.2021 11:14 16,0 C 16,7 C 15,6 C 94 % 1017,6 hPa 0,0 l/m 0 min 0 min 223 W/m 12,9 km/h (3 Bft) 95,74 %
24.09.2021 11:16 16,1 C 16,7 C 15,6 C 94 % 1017,5 hPa 0,0 l/m 0 min 0 min 208 W/m 6,4 km/h (2 Bft) 95,65 %
24.09.2021 11:18 16,2 C 17,2 C 15,6 C 94 % 1017,5 hPa 0,0 l/m 0 min 0 min 212 W/m 12,9 km/h (3 Bft) 95,74 %
24.09.2021 11:20 16,3 C 16,7 C 15,6 C 94 % 1017,6 hPa 0,0 l/m 0 min 0 min 196 W/m 12,9 km/h (3 Bft) 95,74 %
24.09.2021 11:22 16,4 C 17,2 C 16,1 C 93 % 1017,5 hPa 0,0 l/m 0 min 0 min 198 W/m 9,7 km/h (2 Bft) 97,87 %
24.09.2021 11:24 16,5 C 17,2 C 16,1 C 93 % 1017,5 hPa 0,0 l/m 0 min 0 min 182 W/m 12,9 km/h (3 Bft) 97,87 %
24.09.2021 11:26 16,5 C 17,2 C 16,1 C 93 % 1017,5 hPa 0,0 l/m 0 min 0 min 214 W/m 9,7 km/h (2 Bft) 95,74 %
24.09.2021 11:28 16,6 C 17,2 C 16,1 C 92 % 1017,5 hPa 0,0 l/m 0 min 0 min 260 W/m 12,9 km/h (3 Bft) 97,83 %
24.09.2021 11:30 16,7 C 17,8 C 16,1 C 92 % 1017,5 hPa 0,0 l/m 0 min 0 min 247 W/m 6,4 km/h (2 Bft) 97,87 %
24.09.2021 11:32 16,8 C 17,8 C 16,1 C 92 % 1017,5 hPa 0,0 l/m 0 min 0 min 217 W/m 12,9 km/h (3 Bft) 97,87 %
24.09.2021 11:34 16,9 C 17,8 C 16,1 C 91 % 1017,6 hPa 0,0 l/m 0 min 0 min 228 W/m 16,1 km/h (3 Bft) 97,87 %
24.09.2021 11:36 17,0 C 17,8 C 16,1 C 91 % 1017,6 hPa 0,0 l/m 0 min 0 min 196 W/m 6,4 km/h (2 Bft) 97,87 %
24.09.2021 11:38 17,0 C 17,8 C 16,1 C 90 % 1017,6 hPa 0,0 l/m 0 min 0 min 173 W/m 6,4 km/h (2 Bft) 97,87 %
24.09.2021 11:40 17,1 C 17,8 C 16,1 C 90 % 1017,6 hPa 0,0 l/m 0 min 0 min 161 W/m 9,7 km/h (2 Bft) 97,87 %
24.09.2021 11:42 17,2 C 17,8 C 16,1 C 90 % 1017,6 hPa 0,0 l/m 0 min 0 min 158 W/m 9,7 km/h (2 Bft) 97,83 %
24.09.2021 11:44 17,2 C 17,2 C 16,1 C 89 % 1017,6 hPa 0,0 l/m 0 min 0 min 156 W/m 6,4 km/h (2 Bft) 97,87 %
24.09.2021 11:46 17,3 C 17,2 C 16,1 C 89 % 1017,6 hPa 0,0 l/m 0 min 0 min 161 W/m 9,7 km/h (2 Bft) 95,74 %
24.09.2021 11:48 17,3 C 17,2 C 16,1 C 89 % 1017,6 hPa 0,0 l/m 0 min 0 min 218 W/m 16,1 km/h (3 Bft) 97,87 %
24.09.2021 11:50 17,3 C 17,2 C 16,1 C 88 % 1017,5 hPa 0,0 l/m 0 min 0 min 211 W/m 12,9 km/h (3 Bft) 93,62 %
24.09.2021 11:52 17,4 C 17,2 C 16,1 C 88 % 1017,6 hPa 0,0 l/m 0 min 0 min 199 W/m 16,1 km/h (3 Bft) 97,87 %
24.09.2021 11:54 17,4 C 17,2 C 16,1 C 88 % 1017,5 hPa 0,0 l/m 0 min 0 min 180 W/m 19,3 km/h (3 Bft) 97,83 %
24.09.2021 11:56 17,4 C 17,2 C 16,1 C 88 % 1017,5 hPa 0,0 l/m 0 min 0 min 156 W/m 19,3 km/h (3 Bft) 97,87 %
24.09.2021 11:58 17,4 C 17,2 C 16,1 C 87 % 1017,5 hPa 0,0 l/m 0 min 0 min 140 W/m 16,1 km/h (3 Bft) 97,87 %
24.09.2021 12:00 17,4 C 17,2 C 16,1 C 87 % 1017,5 hPa 0,0 l/m 0 min 0 min 128 W/m 16,1 km/h (3 Bft) 95,74 %
24.09.2021 12:02 17,4 C 17,2 C 16,1 C 87 % 1017,5 hPa 0,0 l/m 0 min 0 min 155 W/m 12,9 km/h (3 Bft) 95,74 %
24.09.2021 12:04 17,4 C 17,2 C 16,1 C 87 % 1017,5 hPa 0,0 l/m 0 min 0 min 145 W/m 19,3 km/h (3 Bft) 93,62 %
24.09.2021 12:08 17,5 C 17,2 C 16,1 C 87 % 1017,5 hPa 0,0 l/m 0 min 0 min 152 W/m 12,9 km/h (3 Bft) 94,68 %
24.09.2021 12:10 17,5 C 17,2 C 16,1 C 87 % 1017,4 hPa 0,0 l/m 0 min 0 min 133 W/m 9,7 km/h (2 Bft) 97,87 %
24.09.2021 12:12 17,5 C 17,2 C 16,1 C 87 % 1017,4 hPa 0,0 l/m 0 min 0 min 145 W/m 9,7 km/h (2 Bft) 97,87 %
24.09.2021 12:14 17,5 C 17,2 C 16,1 C 86 % 1017,4 hPa 0,0 l/m 0 min 0 min 154 W/m 16,1 km/h (3 Bft) 97,83 %
24.09.2021 12:16 17,5 C 17,2 C 16,1 C 86 % 1017,4 hPa 0,0 l/m 0 min 0 min 141 W/m 12,9 km/h (3 Bft) 97,87 %
24.09.2021 12:18 17,5 C 17,2 C 16,1 C 86 % 1017,4 hPa 0,0 l/m 0 min 0 min 174 W/m 6,4 km/h (2 Bft) 97,87 %
24.09.2021 12:20 17,6 C 17,8 C 16,1 C 86 % 1017,3 hPa 0,0 l/m 0 min 0 min 184 W/m 12,9 km/h (3 Bft) 97,87 %
24.09.2021 12:22 17,6 C 17,2 C 16,1 C 86 % 1017,3 hPa 0,0 l/m 0 min 0 min 195 W/m 16,1 km/h (3 Bft) 95,74 %
24.09.2021 12:24 17,6 C 17,8 C 16,1 C 86 % 1017,3 hPa 0,0 l/m 0 min 0 min 198 W/m 9,7 km/h (2 Bft) 97,87 %
24.09.2021 12:26 17,6 C 17,8 C 16,1 C 85 % 1017,4 hPa 0,0 l/m 0 min 0 min 198 W/m 9,7 km/h (2 Bft) 97,83 %
24.09.2021 12:28 17,7 C 17,8 C 16,1 C 85 % 1017,4 hPa 0,0 l/m 0 min 0 min 210 W/m 12,9 km/h (3 Bft) 97,87 %
24.09.2021 12:30 17,8 C 17,8 C 16,7 C 85 % 1017,3 hPa 0,0 l/m 0 min 0 min 228 W/m 16,1 km/h (3 Bft) 95,74 %
24.09.2021 12:32 17,8 C 17,8 C 16,7 C 85 % 1017,4 hPa 0,0 l/m 0 min 0 min 228 W/m 16,1 km/h (3 Bft) 97,87 %
24.09.2021 12:34 17,9 C 17,8 C 16,7 C 84 % 1017,3 hPa 0,0 l/m 0 min 0 min 212 W/m 16,1 km/h (3 Bft) 97,87 %
24.09.2021 12:36 17,9 C 17,8 C 16,7 C 84 % 1017,3 hPa 0,0 l/m 0 min 0 min 190 W/m 9,7 km/h (2 Bft) 97,87 %
24.09.2021 12:38 17,9 C 17,8 C 16,7 C 84 % 1017,3 hPa 0,0 l/m 0 min 0 min 194 W/m 16,1 km/h (3 Bft) 97,83 %
24.09.2021 12:40 18,0 C 17,8 C 16,7 C 84 % 1017,3 hPa 0,0 l/m 0 min 0 min 215 W/m 16,1 km/h (3 Bft) 91,49 %
24.09.2021 12:42 18,0 C 17,8 C 16,7 C 84 % 1017,3 hPa 0,0 l/m 0 min 0 min 224 W/m 12,9 km/h (3 Bft) 100,00 %
24.09.2021 12:44 18,0 C 18,3 C 16,7 C 84 % 1017,3 hPa 0,0 l/m 0 min 0 min 234 W/m 6,4 km/h (2 Bft) 97,87 %
24.09.2021 12:46 18,1 C 18,3 C 16,7 C 84 % 1017,3 hPa 0,0 l/m 0 min 0 min 209 W/m 6,4 km/h (2 Bft) 97,87 %
24.09.2021 12:48 18,1 C 18,3 C 16,7 C 84 % 1017,3 hPa 0,0 l/m 0 min 0 min 200 W/m 6,4 km/h (2 Bft) 100,00 %
24.09.2021 12:50 18,2 C 18,3 C 16,7 C 84 % 1017,2 hPa 0,0 l/m 0 min 0 min 222 W/m 6,4 km/h (2 Bft) 100,00 %
24.09.2021 12:52 18,3 C 18,3 C 16,7 C 84 % 1017,2 hPa 0,0 l/m 0 min 0 min 245 W/m 6,4 km/h (2 Bft) 97,87 %
24.09.2021 12:54 18,3 C 18,3 C 16,7 C 83 % 1017,2 hPa 0,0 l/m 0 min 0 min 260 W/m 22,5 km/h (4 Bft) 95,74 %
24.09.2021 12:56 18,3 C 18,9 C 17,3 C 83 % 1017,2 hPa 0,0 l/m 0 min 0 min 296 W/m 12,9 km/h (3 Bft) 97,87 %
24.09.2021 12:58 18,4 C 18,9 C 17,3 C 83 % 1017,2 hPa 0,0 l/m 2 min 0 min 320 W/m 12,9 km/h (3 Bft) 97,87 %
24.09.2021 13:00 18,4 C 18,9 C 17,3 C 82 % 1017,2 hPa 0,0 l/m 2 min 0 min 331 W/m 19,3 km/h (3 Bft) 97,87 %
24.09.2021 13:02 18,5 C 18,9 C 17,3 C 81 % 1017,2 hPa 0,0 l/m 0 min 0 min 267 W/m 19,3 km/h (3 Bft) 97,83 %
24.09.2021 13:04 18,6 C 18,9 C 17,3 C 81 % 1017,2 hPa 0,0 l/m 0 min 0 min 187 W/m 16,1 km/h (3 Bft) 97,87 %
24.09.2021 13:06 18,6 C 18,9 C 17,3 C 81 % 1017,2 hPa 0,0 l/m 0 min 0 min 174 W/m 16,1 km/h (3 Bft) 95,74 %
24.09.2021 13:08 18,6 C 18,3 C 16,7 C 81 % 1017,1 hPa 0,0 l/m 0 min 0 min 178 W/m 19,3 km/h (3 Bft) 97,87 %
24.09.2021 13:10 18,6 C 18,3 C 16,7 C 81 % 1017,1 hPa 0,0 l/m 0 min 0 min 187 W/m 12,9 km/h (3 Bft) 97,87 %
24.09.2021 13:12 18,5 C 18,3 C 16,7 C 81 % 1017,1 hPa 0,0 l/m 0 min 0 min 195 W/m 9,7 km/h (2 Bft) 95,74 %
24.09.2021 13:14 18,5 C 18,3 C 16,7 C 81 % 1017,1 hPa 0,0 l/m 0 min 0 min 206 W/m 19,3 km/h (3 Bft) 97,83 %
24.09.2021 13:16 18,5 C 18,3 C 16,7 C 81 % 1017,0 hPa 0,0 l/m 0 min 0 min 214 W/m 12,9 km/h (3 Bft) 95,74 %
24.09.2021 13:18 18,5 C 18,3 C 16,7 C 81 % 1017,0 hPa 0,0 l/m 0 min 0 min 213 W/m 16,1 km/h (3 Bft) 97,87 %
24.09.2021 13:20 18,5 C 18,3 C 16,7 C 82 % 1017,0 hPa 0,0 l/m 0 min 0 min 227 W/m 19,3 km/h (3 Bft) 97,87 %
24.09.2021 13:22 18,5 C 18,3 C 16,7 C 82 % 1016,9 hPa 0,0 l/m 0 min 0 min 249 W/m 16,1 km/h (3 Bft) 97,87 %
24.09.2021 13:24 18,5 C 18,9 C 17,3 C 82 % 1016,9 hPa 0,0 l/m 0 min 0 min 270 W/m 6,4 km/h (2 Bft) 95,74 %
24.09.2021 13:26 18,6 C 18,9 C 17,3 C 82 % 1016,9 hPa 0,0 l/m 2 min 0 min 344 W/m 12,9 km/h (3 Bft) 97,83 %
24.09.2021 13:28 18,8 C 19,4 C 17,3 C 82 % 1016,9 hPa 0,0 l/m 2 min 0 min 394 W/m 12,9 km/h (3 Bft) 100,00 %
24.09.2021 13:30 18,9 C 19,4 C 17,8 C 81 % 1016,9 hPa 0,0 l/m 2 min 0 min 337 W/m 19,3 km/h (3 Bft) 100,00 %
24.09.2021 13:32 19,0 C 19,4 C 17,8 C 81 % 1016,8 hPa 0,0 l/m 2 min 0 min 351 W/m 22,5 km/h (4 Bft) 100,00 %
24.09.2021 13:34 19,1 C 19,4 C 17,8 C 80 % 1016,7 hPa 0,0 l/m 2 min 0 min 327 W/m 12,9 km/h (3 Bft) 100,00 %
24.09.2021 13:36 19,2 C 20,0 C 17,8 C 80 % 1016,9 hPa 0,0 l/m 2 min 0 min 340 W/m 12,9 km/h (3 Bft) 100,00 %
24.09.2021 13:38 19,3 C 20,0 C 17,8 C 80 % 1016,8 hPa 0,0 l/m 2 min 0 min 307 W/m 16,1 km/h (3 Bft) 100,00 %
24.09.2021 13:40 19,4 C 19,4 C 17,8 C 80 % 1016,8 hPa 0,0 l/m 0 min 0 min 300 W/m 19,3 km/h (3 Bft) 100,00 %
24.09.2021 13:42 19,4 C 19,4 C 17,8 C 79 % 1016,7 hPa 0,0 l/m 0 min 0 min 286 W/m 9,7 km/h (2 Bft) 100,00 %
24.09.2021 13:44 19,4 C 19,4 C 17,8 C 80 % 1016,8 hPa 0,0 l/m 0 min 0 min 217 W/m 9,7 km/h (2 Bft) 100,00 %
24.09.2021 13:46 19,4 C 19,4 C 17,8 C 79 % 1016,8 hPa 0,0 l/m 0 min 0 min 198 W/m 16,1 km/h (3 Bft) 100,00 %
24.09.2021 13:48 19,4 C 19,4 C 17,8 C 79 % 1016,7 hPa 0,0 l/m 0 min 0 min 179 W/m 12,9 km/h (3 Bft) 100,00 %
24.09.2021 13:50 19,4 C 18,9 C 17,3 C 79 % 1016,9 hPa 0,0 l/m 0 min 0 min 176 W/m 16,1 km/h (3 Bft) 100,00 %
24.09.2021 13:52 19,4 C 18,9 C 17,3 C 79 % 1016,8 hPa 0,0 l/m 0 min 0 min 187 W/m 12,9 km/h (3 Bft) 100,00 %
24.09.2021 13:54 19,3 C 18,9 C 17,3 C 79 % 1016,7 hPa 0,0 l/m 0 min 0 min 221 W/m 19,3 km/h (3 Bft) 100,00 %
24.09.2021 13:56 19,3 C 18,9 C 17,3 C 79 % 1016,7 hPa 0,0 l/m 0 min 0 min 253 W/m 16,1 km/h (3 Bft) 100,00 %
24.09.2021 13:58 19,2 C 18,9 C 17,3 C 79 % 1016,7 hPa 0,0 l/m 0 min 0 min 269 W/m 12,9 km/h (3 Bft) 100,00 %
24.09.2021 14:00 19,3 C 19,4 C 17,3 C 79 % 1016,6 hPa 0,0 l/m 0 min 0 min 235 W/m 16,1 km/h (3 Bft) 100,00 %
24.09.2021 14:02 19,3 C 19,4 C 17,3 C 79 % 1016,7 hPa 0,0 l/m 0 min 0 min 189 W/m 16,1 km/h (3 Bft) 100,00 %
24.09.2021 14:04 19,3 C 18,9 C 17,3 C 79 % 1016,6 hPa 0,0 l/m 0 min 0 min 173 W/m 16,1 km/h (3 Bft) 100,00 %
24.09.2021 14:06 19,3 C 19,4 C 17,3 C 79 % 1016,6 hPa 0,0 l/m 0 min 0 min 181 W/m 12,9 km/h (3 Bft) 100,00 %
24.09.2021 14:08 19,3 C 18,9 C 17,3 C 79 % 1016,6 hPa 0,0 l/m 0 min 0 min 213 W/m 16,1 km/h (3 Bft) 100,00 %
24.09.2021 14:10 19,3 C 18,9 C 17,3 C 79 % 1016,6 hPa 0,0 l/m 0 min 0 min 229 W/m 12,9 km/h (3 Bft) 100,00 %
24.09.2021 14:12 19,3 C 18,9 C 17,3 C 79 % 1016,6 hPa 0,0 l/m 0 min 0 min 184 W/m 12,9 km/h (3 Bft) 100,00 %
24.09.2021 14:14 19,3 C 18,9 C 17,3 C 79 % 1016,6 hPa 0,0 l/m 0 min 0 min 168 W/m 9,7 km/h (2 Bft) 100,00 %
24.09.2021 14:16 19,3 C 18,9 C 17,3 C 79 % 1016,6 hPa 0,0 l/m 0 min 0 min 145 W/m 6,4 km/h (2 Bft) 100,00 %
24.09.2021 14:18 19,3 C 18,9 C 17,3 C 79 % 1016,6 hPa 0,0 l/m 0 min 0 min 134 W/m 12,9 km/h (3 Bft) 97,87 %
24.09.2021 14:20 19,3 C 18,9 C 17,3 C 79 % 1016,6 hPa 0,0 l/m 0 min 0 min 138 W/m 6,4 km/h (2 Bft) 100,00 %
24.09.2021 14:22 19,3 C 18,9 C 17,3 C 79 % 1016,7 hPa 0,0 l/m 0 min 0 min 129 W/m 9,7 km/h (2 Bft) 95,74 %
24.09.2021 14:24 19,2 C 18,9 C 17,3 C 80 % 1016,7 hPa 0,0 l/m 0 min 0 min 144 W/m 12,9 km/h (3 Bft) 100,00 %
24.09.2021 14:26 19,2 C 18,9 C 17,3 C 79 % 1016,7 hPa 0,0 l/m 0 min 0 min 180 W/m 12,9 km/h (3 Bft) 97,87 %
24.09.2021 14:28 19,1 C 18,9 C 17,3 C 80 % 1016,7 hPa 0,0 l/m 0 min 0 min 178 W/m 19,3 km/h (3 Bft) 97,87 %
24.09.2021 14:30 19,1 C 18,9 C 17,3 C 79 % 1016,7 hPa 0,0 l/m 0 min 0 min 148 W/m 12,9 km/h (3 Bft) 97,87 %
24.09.2021 14:32 19,1 C 18,9 C 17,3 C 79 % 1016,7 hPa 0,0 l/m 0 min 0 min 141 W/m 22,5 km/h (4 Bft) 97,87 %
24.09.2021 14:34 19,1 C 18,9 C 17,3 C 79 % 1016,7 hPa 0,0 l/m 0 min 0 min 175 W/m 12,9 km/h (3 Bft) 97,87 %
24.09.2021 14:36 19,1 C 18,9 C 17,3 C 79 % 1016,7 hPa 0,0 l/m 0 min 0 min 213 W/m 6,4 km/h (2 Bft) 93,48 %
24.09.2021 14:38 19,2 C 18,9 C 17,3 C 79 % 1016,7 hPa 0,0 l/m 0 min 0 min 228 W/m 12,9 km/h (3 Bft) 95,74 %
24.09.2021 14:40 19,3 C 18,9 C 17,3 C 79 % 1016,6 hPa 0,0 l/m 0 min 0 min 207 W/m 16,1 km/h (3 Bft) 93,62 %
24.09.2021 14:42 19,3 C 18,9 C 17,3 C 78 % 1016,7 hPa 0,0 l/m 0 min 0 min 179 W/m 16,1 km/h (3 Bft) 93,62 %
24.09.2021 14:44 19,3 C 18,9 C 17,3 C 79 % 1016,6 hPa 0,0 l/m 0 min 0 min 169 W/m 19,3 km/h (3 Bft) 95,74 %
24.09.2021 14:46 19,3 C 18,9 C 17,3 C 79 % 1016,6 hPa 0,0 l/m 0 min 0 min 190 W/m 16,1 km/h (3 Bft) 93,62 %
24.09.2021 14:48 19,4 C 18,9 C 17,3 C 79 % 1016,6 hPa 0,0 l/m 0 min 0 min 210 W/m 16,1 km/h (3 Bft) 93,48 %
24.09.2021 14:50 19,4 C 18,9 C 17,3 C 78 % 1016,6 hPa 0,0 l/m 0 min 0 min 188 W/m 19,3 km/h (3 Bft) 95,74 %
24.09.2021 14:52 19,4 C 18,9 C 17,3 C 78 % 1016,5 hPa 0,0 l/m 0 min 0 min 148 W/m 9,7 km/h (2 Bft) 95,74 %
24.09.2021 14:54 19,4 C 18,9 C 17,3 C 79 % 1016,4 hPa 0,0 l/m 0 min 0 min 118 W/m 6,4 km/h (2 Bft) 95,74 %
24.09.2021 14:56 19,4 C 18,9 C 17,3 C 79 % 1016,4 hPa 0,0 l/m 0 min 0 min 101 W/m 12,9 km/h (3 Bft) 95,74 %
24.09.2021 14:58 19,4 C 18,9 C 17,3 C 79 % 1016,5 hPa 0,0 l/m 0 min 0 min 108 W/m 12,9 km/h (3 Bft) 91,30 %
24.09.2021 15:00 19,4 C 18,9 C 17,3 C 79 % 1016,4 hPa 0,0 l/m 0 min 0 min 140 W/m 6,4 km/h (2 Bft) 93,62 %
24.09.2021 15:02 19,4 C 18,9 C 17,3 C 79 % 1016,5 hPa 0,0 l/m 0 min 0 min 193 W/m 12,9 km/h (3 Bft) 91,49 %
24.09.2021 15:04 19,4 C 18,9 C 17,3 C 79 % 1016,3 hPa 0,0 l/m 0 min 0 min 210 W/m 9,7 km/h (2 Bft) 93,62 %
24.09.2021 15:06 19,4 C 19,4 C 17,3 C 79 % 1016,4 hPa 0,0 l/m 0 min 0 min 196 W/m 12,9 km/h (3 Bft) 93,62 %
24.09.2021 15:08 19,4 C 19,4 C 17,3 C 78 % 1016,4 hPa 0,0 l/m 0 min 0 min 191 W/m 12,9 km/h (3 Bft) 91,49 %
24.09.2021 15:10 19,4 C 19,4 C 17,3 C 78 % 1016,3 hPa 0,0 l/m 0 min 0 min 199 W/m 6,4 km/h (2 Bft) 93,62 %
24.09.2021 15:12 19,5 C 20,0 C 17,8 C 79 % 1016,3 hPa 0,0 l/m 0 min 0 min 218 W/m 12,9 km/h (3 Bft) 91,30 %
24.09.2021 15:14 19,6 C 20,0 C 17,8 C 78 % 1016,3 hPa 0,0 l/m 2 min 0 min 334 W/m 16,1 km/h (3 Bft) 93,62 %
24.09.2021 15:16 19,7 C 20,6 C 17,8 C 78 % 1016,4 hPa 0,0 l/m 2 min 0 min 384 W/m 19,3 km/h (3 Bft) 93,62 %
24.09.2021 15:18 19,8 C 20,6 C 17,8 C 78 % 1016,2 hPa 0,0 l/m 2 min 0 min 419 W/m 19,3 km/h (3 Bft) 95,74 %
24.09.2021 15:20 19,9 C 20,6 C 17,8 C 78 % 1016,3 hPa 0,0 l/m 2 min 0 min 346 W/m 16,1 km/h (3 Bft) 94,29 %
24.09.2021 15:22 19,9 C 20,6 C 17,8 C 78 % 1016,2 hPa 0,0 l/m 2 min 0 min 288 W/m 6,4 km/h (2 Bft) 96,55 %
24.09.2021 15:24 20,0 C 20,6 C 17,8 C 78 % 1016,2 hPa 0,0 l/m 2 min 0 min 266 W/m 12,9 km/h (3 Bft) 94,44 %
24.09.2021 15:26 20,0 C 20,6 C 17,8 C 77 % 1016,2 hPa 0,0 l/m 0 min 0 min 229 W/m 12,9 km/h (3 Bft) 94,34 %
24.09.2021 15:28 20,1 C 20,0 C 17,8 C 77 % 1016,2 hPa 0,0 l/m 0 min 0 min 193 W/m 12,9 km/h (3 Bft) 95,65 %
24.09.2021 15:30 20,1 C 20,0 C 17,8 C 77 % 1016,2 hPa 0,0 l/m 0 min 0 min 181 W/m 6,4 km/h (2 Bft) 95,74 %
24.09.2021 15:32 20,1 C 20,0 C 17,8 C 77 % 1016,1 hPa 0,0 l/m 0 min 0 min 160 W/m 12,9 km/h (3 Bft) 95,74 %
24.09.2021 15:34 20,1 C 19,4 C 17,8 C 77 % 1016,2 hPa 0,0 l/m 0 min 0 min 157 W/m 12,9 km/h (3 Bft) 97,87 %
24.09.2021 15:36 20,0 C 20,0 C 17,8 C 77 % 1016,1 hPa 0,0 l/m 0 min 0 min 169 W/m 12,9 km/h (3 Bft) 95,74 %
24.09.2021 15:38 20,0 C 20,0 C 17,8 C 77 % 1016,1 hPa 0,0 l/m 0 min 0 min 246 W/m 12,9 km/h (3 Bft) 100,00 %
24.09.2021 15:40 20,0 C 20,0 C 17,8 C 77 % 1016,1 hPa 0,0 l/m 2 min 0 min 289 W/m 16,1 km/h (3 Bft) 100,00 %
24.09.2021 15:42 20,0 C 20,0 C 17,8 C 77 % 1016,0 hPa 0,0 l/m 2 min 0 min 265 W/m 12,9 km/h (3 Bft) 100,00 %
24.09.2021 15:44 20,1 C 20,0 C 17,8 C 77 % 1016,0 hPa 0,0 l/m 0 min 0 min 203 W/m 6,4 km/h (2 Bft) 100,00 %
24.09.2021 15:46 20,1 C 20,0 C 17,8 C 77 % 1016,0 hPa 0,0 l/m 0 min 0 min 143 W/m 0,0 km/h (0 Bft) 100,00 %
24.09.2021 15:48 20,1 C 20,0 C 17,8 C 77 % 1015,9 hPa 0,0 l/m 0 min 0 min 139 W/m 3,2 km/h (1 Bft) 100,00 %
24.09.2021 15:50 20,0 C 20,0 C 17,8 C 77 % 1015,9 hPa 0,0 l/m 0 min 0 min 207 W/m 6,4 km/h (2 Bft) 100,00 %
24.09.2021 15:52 20,0 C 20,0 C 17,8 C 77 % 1015,9 hPa 0,0 l/m 0 min 0 min 229 W/m 6,4 km/h (2 Bft) 100,00 %
24.09.2021 15:54 20,1 C 20,0 C 17,8 C 78 % 1015,9 hPa 0,0 l/m 0 min 0 min 217 W/m 6,4 km/h (2 Bft) 100,00 %
24.09.2021 15:56 20,1 C 20,0 C 17,8 C 78 % 1015,9 hPa 0,0 l/m 0 min 0 min 193 W/m 6,4 km/h (2 Bft) 100,00 %
24.09.2021 15:58 20,1 C 20,0 C 17,8 C 77 % 1015,9 hPa 0,0 l/m 0 min 0 min 177 W/m 16,1 km/h (3 Bft) 100,00 %
24.09.2021 16:00 20,1 C 20,0 C 17,8 C 77 % 1015,9 hPa 0,0 l/m 0 min 0 min 157 W/m 6,4 km/h (2 Bft) 100,00 %
24.09.2021 16:02 20,1 C 20,0 C 17,8 C 78 % 1015,8 hPa 0,0 l/m 0 min 0 min 137 W/m 9,7 km/h (2 Bft) 100,00 %
24.09.2021 16:04 20,1 C 20,0 C 17,8 C 78 % 1015,9 hPa 0,0 l/m 0 min 0 min 133 W/m 12,9 km/h (3 Bft) 100,00 %
24.09.2021 16:06 20,1 C 20,0 C 17,8 C 77 % 1015,8 hPa 0,0 l/m 0 min 0 min 139 W/m 6,4 km/h (2 Bft) 100,00 %
24.09.2021 16:08 20,1 C 20,0 C 17,8 C 78 % 1015,8 hPa 0,0 l/m 0 min 0 min 148 W/m 6,4 km/h (2 Bft) 100,00 %
24.09.2021 16:10 20,1 C 20,0 C 17,8 C 78 % 1015,8 hPa 0,0 l/m 0 min 0 min 156 W/m 12,9 km/h (3 Bft) 100,00 %
24.09.2021 16:12 20,0 C 20,0 C 17,8 C 78 % 1015,7 hPa 0,0 l/m 0 min 0 min 165 W/m 12,9 km/h (3 Bft) 100,00 %
24.09.2021 16:14 20,0 C 20,0 C 17,8 C 78 % 1015,8 hPa 0,0 l/m 0 min 0 min 159 W/m 9,7 km/h (2 Bft) 100,00 %
24.09.2021 16:16 20,0 C 19,4 C 17,8 C 78 % 1015,8 hPa 0,0 l/m 0 min 0 min 148 W/m 9,7 km/h (2 Bft) 100,00 %
24.09.2021 16:18 20,0 C 19,4 C 17,8 C 78 % 1015,7 hPa 0,0 l/m 0 min 0 min 138 W/m 9,7 km/h (2 Bft) 100,00 %
24.09.2021 16:20 20,0 C 19,4 C 17,8 C 78 % 1015,7 hPa 0,0 l/m 0 min 0 min 129 W/m 6,4 km/h (2 Bft) 100,00 %
24.09.2021 16:22 20,0 C 19,4 C 17,8 C 78 % 1015,7 hPa 0,0 l/m 0 min 0 min 123 W/m 6,4 km/h (2 Bft) 100,00 %
24.09.2021 16:24 20,1 C 19,4 C 17,8 C 78 % 1015,7 hPa 0,0 l/m 0 min 0 min 119 W/m 6,4 km/h (2 Bft) 100,00 %
24.09.2021 16:26 20,0 C 19,4 C 17,8 C 78 % 1015,7 hPa 0,0 l/m 0 min 0 min 113 W/m 9,7 km/h (2 Bft) 100,00 %
24.09.2021 16:28 20,0 C 19,4 C 17,8 C 78 % 1015,7 hPa 0,0 l/m 0 min 0 min 115 W/m 6,4 km/h (2 Bft) 100,00 %
24.09.2021 16:30 20,0 C 19,4 C 17,8 C 79 % 1015,7 hPa 0,0 l/m 0 min 0 min 122 W/m 6,4 km/h (2 Bft) 97,87 %
24.09.2021 16:32 20,0 C 20,0 C 17,8 C 79 % 1015,6 hPa 0,0 l/m 0 min 0 min 140 W/m 6,4 km/h (2 Bft) 100,00 %
24.09.2021 16:34 20,0 C 20,0 C 17,8 C 79 % 1015,6 hPa 0,0 l/m 0 min 0 min 155 W/m 3,2 km/h (1 Bft) 97,87 %
24.09.2021 16:36 20,0 C 20,0 C 17,8 C 79 % 1015,6 hPa 0,0 l/m 0 min 0 min 158 W/m 6,4 km/h (2 Bft) 100,00 %
24.09.2021 16:38 20,1 C 20,0 C 17,8 C 79 % 1015,5 hPa 0,0 l/m 0 min 0 min 156 W/m 6,4 km/h (2 Bft) 100,00 %
24.09.2021 16:40 20,1 C 20,0 C 17,8 C 79 % 1015,5 hPa 0,0 l/m 0 min 0 min 164 W/m 3,2 km/h (1 Bft) 100,00 %
24.09.2021 16:42 20,1 C 20,6 C 17,8 C 79 % 1015,5 hPa 0,0 l/m 0 min 0 min 178 W/m 6,4 km/h (2 Bft) 100,00 %
24.09.2021 16:44 20,2 C 20,6 C 17,8 C 79 % 1015,5 hPa 0,0 l/m 2 min 0 min 200 W/m 9,7 km/h (2 Bft) 100,00 %
24.09.2021 16:46 20,2 C 21,7 C 17,8 C 79 % 1015,5 hPa 0,0 l/m 2 min 0 min 228 W/m 9,7 km/h (2 Bft) 100,00 %
24.09.2021 16:48 20,3 C 23,9 C 17,8 C 79 % 1015,4 hPa 0,0 l/m 2 min 0 min 384 W/m 6,4 km/h (2 Bft) 100,00 %
24.09.2021 16:50 20,4 C 25,0 C 18,4 C 79 % 1015,4 hPa 0,0 l/m 2 min 0 min 461 W/m 12,9 km/h (3 Bft) 100,00 %
24.09.2021 16:52 20,5 C 25,0 C 18,4 C 78 % 1015,4 hPa 0,0 l/m 2 min 0 min 420 W/m 16,1 km/h (3 Bft) 100,00 %
24.09.2021 16:54 20,6 C 23,3 C 17,8 C 78 % 1015,4 hPa 0,0 l/m 2 min 0 min 243 W/m 12,9 km/h (3 Bft) 100,00 %
24.09.2021 16:56 20,6 C 22,2 C 17,8 C 77 % 1015,4 hPa 0,0 l/m 0 min 0 min 112 W/m 12,9 km/h (3 Bft) 97,87 %
24.09.2021 16:58 20,6 C 21,1 C 17,8 C 77 % 1015,4 hPa 0,0 l/m 0 min 0 min 115 W/m 6,4 km/h (2 Bft) 100,00 %
24.09.2021 17:00 20,5 C 20,6 C 17,8 C 77 % 1015,4 hPa 0,0 l/m 0 min 0 min 114 W/m 9,7 km/h (2 Bft) 95,74 %
24.09.2021 17:02 20,5 C 20,6 C 17,8 C 77 % 1015,4 hPa 0,0 l/m 0 min 0 min 113 W/m 9,7 km/h (2 Bft) 95,65 %
24.09.2021 17:04 20,5 C 20,6 C 17,8 C 77 % 1015,4 hPa 0,0 l/m 0 min 0 min 125 W/m 12,9 km/h (3 Bft) 97,87 %
24.09.2021 17:06 20,5 C 21,1 C 17,8 C 77 % 1015,4 hPa 0,0 l/m 2 min 0 min 176 W/m 12,9 km/h (3 Bft) 95,74 %
24.09.2021 17:08 20,6 C 21,7 C 17,8 C 77 % 1015,4 hPa 0,0 l/m 2 min 0 min 219 W/m 9,7 km/h (2 Bft) 97,87 %
24.09.2021 17:10 20,6 C 21,1 C 17,8 C 77 % 1015,4 hPa 0,0 l/m 2 min 0 min 175 W/m 9,7 km/h (2 Bft) 93,62 %
24.09.2021 17:12 20,6 C 20,6 C 17,8 C 77 % 1015,4 hPa 0,0 l/m 0 min 0 min 132 W/m 16,1 km/h (3 Bft) 95,74 %
24.09.2021 17:14 20,6 C 20,6 C 17,8 C 76 % 1015,4 hPa 0,0 l/m 0 min 0 min 90 W/m 12,9 km/h (3 Bft) 95,65 %
24.09.2021 17:16 20,6 C 20,0 C 17,8 C 76 % 1015,3 hPa 0,0 l/m 0 min 0 min 74 W/m 9,7 km/h (2 Bft) 93,62 %
24.09.2021 17:18 20,5 C 20,0 C 17,8 C 76 % 1015,3 hPa 0,0 l/m 0 min 0 min 76 W/m 12,9 km/h (3 Bft) 93,62 %
24.09.2021 17:20 20,5 C 20,0 C 17,8 C 76 % 1015,3 hPa 0,0 l/m 0 min 0 min 75 W/m 6,4 km/h (2 Bft) 95,74 %
24.09.2021 17:22 20,5 C 20,0 C 17,8 C 76 % 1015,2 hPa 0,0 l/m 0 min 0 min 73 W/m 9,7 km/h (2 Bft) 97,87 %
24.09.2021 17:24 20,5 C 20,0 C 17,8 C 76 % 1015,3 hPa 0,0 l/m 0 min 0 min 90 W/m 6,4 km/h (2 Bft) 95,74 %
24.09.2021 17:26 20,4 C 20,0 C 17,8 C 76 % 1015,3 hPa 0,0 l/m 0 min 0 min 113 W/m 12,9 km/h (3 Bft) 95,65 %
24.09.2021 17:28 20,4 C 21,7 C 17,8 C 76 % 1015,2 hPa 0,0 l/m 2 min 0 min 212 W/m 6,4 km/h (2 Bft) 95,74 %
24.09.2021 17:30 20,5 C 21,7 C 17,8 C 77 % 1015,2 hPa 0,0 l/m 2 min 0 min 208 W/m 12,9 km/h (3 Bft) 95,74 %
24.09.2021 17:32 20,5 C 21,1 C 17,8 C 77 % 1015,2 hPa 0,0 l/m 0 min 0 min 118 W/m 3,2 km/h (1 Bft) 93,62 %
24.09.2021 17:34 20,6 C 21,7 C 17,8 C 77 % 1015,2 hPa 0,0 l/m 0 min 0 min 122 W/m 9,7 km/h (2 Bft) 95,74 %
24.09.2021 17:36 20,6 C 22,2 C 17,8 C 76 % 1015,2 hPa 0,0 l/m 2 min 0 min 214 W/m 9,7 km/h (2 Bft) 93,48 %
24.09.2021 17:38 20,6 C 22,2 C 17,8 C 76 % 1015,2 hPa 0,0 l/m 0 min 0 min 127 W/m 9,7 km/h (2 Bft) 95,74 %
24.09.2021 17:40 20,6 C 22,8 C 17,8 C 76 % 1015,3 hPa 0,0 l/m 2 min 0 min 175 W/m 12,9 km/h (3 Bft) 95,74 %
24.09.2021 17:42 20,6 C 22,2 C 17,8 C 75 % 1015,3 hPa 0,0 l/m 2 min 0 min 207 W/m 16,1 km/h (3 Bft) 93,62 %
24.09.2021 17:44 20,7 C 22,2 C 17,8 C 75 % 1015,3 hPa 0,0 l/m 2 min 0 min 168 W/m 6,4 km/h (2 Bft) 97,87 %
24.09.2021 17:46 20,8 C 21,1 C 17,8 C 75 % 1015,4 hPa 0,0 l/m 2 min 0 min 139 W/m 6,4 km/h (2 Bft) 97,87 %
24.09.2021 17:48 20,7 C 21,7 C 17,8 C 75 % 1015,3 hPa 0,0 l/m 2 min 0 min 151 W/m 12,9 km/h (3 Bft) 100,00 %
24.09.2021 17:50 20,8 C 21,7 C 17,8 C 75 % 1015,3 hPa 0,0 l/m 2 min 0 min 236 W/m 19,3 km/h (3 Bft) 97,83 %
24.09.2021 17:52 20,8 C 21,1 C 17,8 C 74 % 1015,3 hPa 0,0 l/m 2 min 0 min 176 W/m 6,4 km/h (2 Bft) 97,87 %
24.09.2021 17:54 20,8 C 21,1 C 17,8 C 74 % 1015,3 hPa 0,0 l/m 2 min 0 min 118 W/m 6,4 km/h (2 Bft) 100,00 %
24.09.2021 17:56 20,8 C 20,6 C 17,8 C 74 % 1015,3 hPa 0,0 l/m 0 min 0 min 103 W/m 6,4 km/h (2 Bft) 95,74 %
24.09.2021 17:58 20,8 C 20,6 C 17,8 C 73 % 1015,3 hPa 0,0 l/m 0 min 0 min 85 W/m 6,4 km/h (2 Bft) 97,87 %
24.09.2021 18:00 20,8 C 20,6 C 17,8 C 74 % 1015,3 hPa 0,0 l/m 0 min 0 min 96 W/m 16,1 km/h (3 Bft) 97,83 %
24.09.2021 18:02 20,8 C 20,6 C 17,8 C 73 % 1015,3 hPa 0,0 l/m 0 min 0 min 98 W/m 16,1 km/h (3 Bft) 97,87 %
24.09.2021 18:04 20,8 C 20,6 C 17,8 C 74 % 1015,3 hPa 0,0 l/m 2 min 0 min 129 W/m 6,4 km/h (2 Bft) 95,74 %
24.09.2021 18:08 20,7 C 20,6 C 17,8 C 73 % 1015,3 hPa 0,0 l/m 4 min 0 min 143 W/m 12,9 km/h (3 Bft) 97,89 %
24.09.2021 18:10 20,7 C 21,1 C 17,8 C 73 % 1015,3 hPa 0,0 l/m 2 min 0 min 164 W/m 6,4 km/h (2 Bft) 97,87 %
24.09.2021 18:12 20,7 C 21,1 C 17,8 C 73 % 1015,3 hPa 0,0 l/m 2 min 0 min 132 W/m 3,2 km/h (1 Bft) 97,83 %
24.09.2021 18:14 20,7 C 20,6 C 17,8 C 73 % 1015,4 hPa 0,0 l/m 0 min 0 min 64 W/m 6,4 km/h (2 Bft) 97,87 %
24.09.2021 18:16 20,7 C 20,6 C 17,8 C 72 % 1015,4 hPa 0,0 l/m 0 min 0 min 50 W/m 12,9 km/h (3 Bft) 98,00 %
24.09.2021 18:18 20,6 C 20,0 C 17,8 C 72 % 1015,4 hPa 0,0 l/m 0 min 0 min 42 W/m 12,9 km/h (3 Bft) 97,87 %
24.09.2021 18:20 20,5 C 20,0 C 17,3 C 72 % 1015,4 hPa 0,0 l/m 0 min 0 min 36 W/m 16,1 km/h (3 Bft) 97,87 %
24.09.2021 18:22 20,5 C 19,4 C 17,3 C 72 % 1015,4 hPa 0,0 l/m 0 min 0 min 33 W/m 6,4 km/h (2 Bft) 97,83 %
24.09.2021 18:24 20,4 C 19,4 C 17,3 C 72 % 1015,4 hPa 0,0 l/m 0 min 0 min 33 W/m 12,9 km/h (3 Bft) 97,87 %
24.09.2021 18:26 20,3 C 19,4 C 17,3 C 72 % 1015,4 hPa 0,0 l/m 0 min 0 min 35 W/m 6,4 km/h (2 Bft) 95,74 %
24.09.2021 18:28 20,3 C 19,4 C 17,3 C 73 % 1015,4 hPa 0,0 l/m 0 min 0 min 33 W/m 12,9 km/h (3 Bft) 97,87 %
24.09.2021 18:30 20,2 C 18,9 C 17,3 C 73 % 1015,4 hPa 0,0 l/m 0 min 0 min 38 W/m 3,2 km/h (1 Bft) 97,87 %
24.09.2021 18:32 20,1 C 18,9 C 17,3 C 74 % 1015,4 hPa 0,0 l/m 0 min 0 min 45 W/m 6,4 km/h (2 Bft) 93,62 %
24.09.2021 18:34 20,1 C 18,9 C 17,3 C 74 % 1015,4 hPa 0,0 l/m 0 min 0 min 46 W/m 12,9 km/h (3 Bft) 97,83 %
24.09.2021 18:36 20,0 C 18,9 C 16,7 C 74 % 1015,3 hPa 0,0 l/m 0 min 0 min 41 W/m 12,9 km/h (3 Bft) 97,87 %
24.09.2021 18:38 20,0 C 18,9 C 16,7 C 74 % 1015,4 hPa 0,0 l/m 0 min 0 min 34 W/m 12,9 km/h (3 Bft) 97,92 %
24.09.2021 18:40 19,9 C 18,9 C 16,7 C 75 % 1015,3 hPa 0,0 l/m 0 min 0 min 34 W/m 12,9 km/h (3 Bft) 97,87 %
24.09.2021 18:42 19,9 C 18,9 C 16,7 C 75 % 1015,4 hPa 0,0 l/m 0 min 0 min 39 W/m 12,9 km/h (3 Bft) 97,87 %
24.09.2021 18:44 19,9 C 18,9 C 16,7 C 75 % 1015,4 hPa 0,0 l/m 0 min 0 min 42 W/m 6,4 km/h (2 Bft) 97,83 %
24.09.2021 18:46 19,8 C 18,9 C 16,7 C 76 % 1015,4 hPa 0,0 l/m 0 min 0 min 40 W/m 6,4 km/h (2 Bft) 97,87 %
24.09.2021 18:48 19,8 C 18,9 C 16,7 C 76 % 1015,5 hPa 0,0 l/m 0 min 0 min 40 W/m 6,4 km/h (2 Bft) 97,87 %
24.09.2021 18:50 19,8 C 18,9 C 16,7 C 76 % 1015,5 hPa 0,0 l/m 0 min 0 min 39 W/m 3,2 km/h (1 Bft) 97,87 %
24.09.2021 18:52 19,7 C 18,9 C 16,7 C 77 % 1015,5 hPa 0,0 l/m 0 min 0 min 36 W/m 6,4 km/h (2 Bft) 100,00 %
24.09.2021 18:54 19,7 C 18,9 C 16,7 C 77 % 1015,6 hPa 0,0 l/m 0 min 0 min 34 W/m 9,7 km/h (2 Bft) 100,00 %
24.09.2021 18:56 19,6 C 18,9 C 16,7 C 77 % 1015,5 hPa 0,0 l/m 0 min 0 min 31 W/m 6,4 km/h (2 Bft) 100,00 %
24.09.2021 18:58 19,6 C 18,9 C 16,7 C 77 % 1015,5 hPa 0,0 l/m 0 min 0 min 26 W/m 9,7 km/h (2 Bft) 100,00 %
24.09.2021 19:00 19,6 C 18,9 C 16,7 C 77 % 1015,5 hPa 0,0 l/m 0 min 0 min 23 W/m 9,7 km/h (2 Bft) 100,00 %
24.09.2021 19:02 19,5 C 18,3 C 16,7 C 78 % 1015,5 hPa 0,0 l/m 0 min 0 min 19 W/m 3,2 km/h (1 Bft) 97,87 %
24.09.2021 19:04 19,5 C 18,3 C 16,7 C 78 % 1015,5 hPa 0,0 l/m 0 min 0 min 18 W/m 6,4 km/h (2 Bft) 100,00 %
24.09.2021 19:06 19,4 C 18,3 C 16,1 C 78 % 1015,5 hPa 0,0 l/m 0 min 0 min 16 W/m 3,2 km/h (1 Bft) 97,87 %
24.09.2021 19:08 19,4 C 18,3 C 16,1 C 78 % 1015,6 hPa 0,0 l/m 0 min 0 min 16 W/m 3,2 km/h (1 Bft) 100,00 %
24.09.2021 19:10 19,4 C 18,3 C 16,1 C 78 % 1015,5 hPa 0,0 l/m 0 min 0 min 14 W/m 3,2 km/h (1 Bft) 100,00 %
24.09.2021 19:12 19,3 C 18,3 C 16,1 C 79 % 1015,6 hPa 0,0 l/m 0 min 0 min 12 W/m 6,4 km/h (2 Bft) 100,00 %
24.09.2021 19:14 19,3 C 18,3 C 16,1 C 79 % 1015,5 hPa 0,0 l/m 0 min 0 min 11 W/m 3,2 km/h (1 Bft) 100,00 %
24.09.2021 19:16 19,3 C 17,8 C 16,1 C 79 % 1015,6 hPa 0,0 l/m 0 min 0 min 10 W/m 6,4 km/h (2 Bft) 97,87 %
24.09.2021 19:18 19,1 C 17,8 C 16,1 C 79 % 1015,6 hPa 0,0 l/m 0 min 0 min 7 W/m 6,4 km/h (2 Bft) 97,87 %
24.09.2021 19:20 19,1 C 17,8 C 16,1 C 79 % 1015,6 hPa 0,0 l/m 0 min 0 min 6 W/m 6,4 km/h (2 Bft) 97,83 %
24.09.2021 19:22 19,1 C 18,3 C 16,1 C 80 % 1015,6 hPa 0,0 l/m 0 min 0 min 5 W/m 12,9 km/h (3 Bft) 95,74 %
24.09.2021 19:24 19,1 C 17,8 C 16,1 C 80 % 1015,6 hPa 0,0 l/m 0 min 0 min 5 W/m 6,4 km/h (2 Bft) 97,87 %
24.09.2021 19:26 19,0 C 17,8 C 16,1 C 80 % 1015,7 hPa 0,0 l/m 0 min 0 min 0 W/m 6,4 km/h (2 Bft) 97,87 %
24.09.2021 19:28 19,0 C 17,8 C 16,1 C 80 % 1015,6 hPa 0,0 l/m 0 min 0 min 0 W/m 12,9 km/h (3 Bft) 97,87 %
24.09.2021 19:30 19,0 C 17,8 C 16,1 C 80 % 1015,6 hPa 0,0 l/m 0 min 0 min 0 W/m 12,9 km/h (3 Bft) 97,87 %
24.09.2021 19:32 19,0 C 18,3 C 16,1 C 81 % 1015,7 hPa 0,0 l/m 0 min 0 min 0 W/m 6,4 km/h (2 Bft) 97,83 %
24.09.2021 19:34 19,0 C 18,3 C 16,1 C 81 % 1015,7 hPa 0,0 l/m 0 min 0 min 0 W/m 6,4 km/h (2 Bft) 95,74 %
24.09.2021 19:36 19,0 C 17,8 C 16,1 C 81 % 1015,7 hPa 0,0 l/m 0 min 0 min 0 W/m 3,2 km/h (1 Bft) 95,74 %
24.09.2021 19:38 18,9 C 17,8 C 16,1 C 81 % 1015,8 hPa 0,0 l/m 0 min 0 min 0 W/m 9,7 km/h (2 Bft) 95,74 %
24.09.2021 19:40 18,9 C 17,8 C 16,1 C 81 % 1015,8 hPa 0,0 l/m 0 min 0 min 0 W/m 12,9 km/h (3 Bft) 95,74 %
24.09.2021 19:42 18,9 C 17,8 C 16,1 C 81 % 1015,8 hPa 0,0 l/m 0 min 0 min 0 W/m 12,9 km/h (3 Bft) 95,65 %
24.09.2021 19:44 18,9 C 17,8 C 16,1 C 81 % 1015,8 hPa 0,0 l/m 0 min 0 min 0 W/m 6,4 km/h (2 Bft) 95,74 %
24.09.2021 19:46 18,8 C 17,8 C 16,1 C 81 % 1015,8 hPa 0,0 l/m 0 min 0 min 0 W/m 12,9 km/h (3 Bft) 95,74 %
24.09.2021 19:48 18,8 C 17,8 C 16,1 C 81 % 1015,9 hPa 0,0 l/m 0 min 0 min 0 W/m 6,4 km/h (2 Bft) 97,87 %
24.09.2021 19:50 18,8 C 17,8 C 16,1 C 81 % 1015,9 hPa 0,0 l/m 0 min 0 min 0 W/m 9,7 km/h (2 Bft) 97,87 %
24.09.2021 19:52 18,8 C 17,8 C 16,1 C 82 % 1015,8 hPa 0,0 l/m 0 min 0 min 0 W/m 6,4 km/h (2 Bft) 95,74 %
24.09.2021 19:54 18,8 C 17,8 C 16,1 C 82 % 1015,9 hPa 0,0 l/m 0 min 0 min 0 W/m 9,7 km/h (2 Bft) 97,83 %
24.09.2021 19:56 18,8 C 17,8 C 16,1 C 82 % 1015,9 hPa 0,0 l/m 0 min 0 min 0 W/m 3,2 km/h (1 Bft) 97,87 %
24.09.2021 19:58 18,8 C 17,8 C 16,1 C 82 % 1015,8 hPa 0,0 l/m 0 min 0 min 0 W/m 6,4 km/h (2 Bft) 97,87 %
24.09.2021 20:00 18,8 C 17,8 C 16,1 C 82 % 1015,9 hPa 0,0 l/m 0 min 0 min 0 W/m 3,2 km/h (1 Bft) 97,87 %
24.09.2021 20:02 18,7 C 17,8 C 16,1 C 82 % 1015,8 hPa 0,0 l/m 0 min 0 min 0 W/m 3,2 km/h (1 Bft) 97,87 %
24.09.2021 20:04 18,7 C 17,8 C 15,6 C 82 % 1015,8 hPa 0,0 l/m 0 min 0 min 0 W/m 6,4 km/h (2 Bft) 97,87 %
24.09.2021 20:06 18,6 C 17,8 C 15,6 C 82 % 1015,9 hPa 0,0 l/m 0 min 0 min 0 W/m 6,4 km/h (2 Bft) 97,78 %
24.09.2021 20:08 18,6 C 17,8 C 15,6 C 82 % 1015,9 hPa 0,0 l/m 0 min 0 min 0 W/m 6,4 km/h (2 Bft) 97,87 %
24.09.2021 20:10 18,6 C 17,8 C 15,6 C 82 % 1015,9 hPa 0,0 l/m 0 min 0 min 0 W/m 3,2 km/h (1 Bft) 95,65 %
24.09.2021 20:12 18,5 C 17,2 C 15,6 C 82 % 1015,9 hPa 0,0 l/m 0 min 0 min 0 W/m 3,2 km/h (1 Bft) 97,87 %
24.09.2021 20:14 18,5 C 17,2 C 15,6 C 82 % 1016,0 hPa 0,0 l/m 0 min 0 min 0 W/m 3,2 km/h (1 Bft) 97,87 %
24.09.2021 20:16 18,5 C 17,2 C 15,6 C 83 % 1016,0 hPa 0,0 l/m 0 min 0 min 0 W/m 6,4 km/h (2 Bft) 97,87 %
24.09.2021 20:18 18,5 C 17,2 C 15,6 C 83 % 1016,1 hPa 0,0 l/m 0 min 0 min 0 W/m 3,2 km/h (1 Bft) 97,87 %
24.09.2021 20:20 18,4 C 17,2 C 15,6 C 83 % 1016,0 hPa 0,0 l/m 0 min 0 min 0 W/m 3,2 km/h (1 Bft) 97,87 %
24.09.2021 20:22 18,4 C 17,2 C 15,6 C 83 % 1016,1 hPa 0,0 l/m 0 min 0 min 0 W/m 3,2 km/h (1 Bft) 97,83 %
24.09.2021 20:24 18,3 C 16,7 C 15,0 C 83 % 1016,2 hPa 0,0 l/m 0 min 0 min 0 W/m 3,2 km/h (1 Bft) 95,74 %
24.09.2021 20:26 18,3 C 16,7 C 15,0 C 83 % 1016,1 hPa 0,0 l/m 0 min 0 min 0 W/m 0,0 km/h (0 Bft) 100,00 %
24.09.2021 20:28 18,3 C 16,7 C 15,0 C 83 % 1016,2 hPa 0,0 l/m 0 min 0 min 0 W/m 0,0 km/h (0 Bft) 100,00 %
24.09.2021 20:30 18,2 C 16,7 C 15,0 C 83 % 1016,2 hPa 0,0 l/m 0 min 0 min 0 W/m 3,2 km/h (1 Bft) 97,87 %
24.09.2021 20:32 18,1 C 16,7 C 15,0 C 83 % 1016,2 hPa 0,0 l/m 0 min 0 min 0 W/m 3,2 km/h (1 Bft) 100,00 %
24.09.2021 20:34 18,1 C 16,7 C 15,0 C 84 % 1016,2 hPa 0,0 l/m 0 min 0 min 0 W/m 3,2 km/h (1 Bft) 100,00 %
24.09.2021 20:36 18,1 C 16,7 C 15,0 C 84 % 1016,2 hPa 0,0 l/m 0 min 0 min 0 W/m 3,2 km/h (1 Bft) 100,00 %
24.09.2021 20:38 18,0 C 16,7 C 15,0 C 84 % 1016,2 hPa 0,0 l/m 0 min 0 min 0 W/m 6,4 km/h (2 Bft) 97,87 %
24.09.2021 20:40 18,0 C 16,7 C 15,0 C 84 % 1016,3 hPa 0,0 l/m 0 min 0 min 0 W/m 6,4 km/h (2 Bft) 95,74 %
24.09.2021 20:42 18,0 C 16,7 C 15,0 C 84 % 1016,3 hPa 0,0 l/m 0 min 0 min 0 W/m 9,7 km/h (2 Bft) 100,00 %
24.09.2021 20:44 18,0 C 16,7 C 15,0 C 85 % 1016,3 hPa 0,0 l/m 0 min 0 min 0 W/m 6,4 km/h (2 Bft) 100,00 %
24.09.2021 20:46 18,0 C 16,7 C 15,0 C 85 % 1016,3 hPa 0,0 l/m 0 min 0 min 0 W/m 6,4 km/h (2 Bft) 97,87 %
24.09.2021 20:48 17,9 C 17,2 C 15,0 C 85 % 1016,3 hPa 0,0 l/m 0 min 0 min 0 W/m 6,4 km/h (2 Bft) 100,00 %
24.09.2021 20:50 17,9 C 16,7 C 15,0 C 85 % 1016,4 hPa 0,0 l/m 0 min 0 min 0 W/m 9,7 km/h (2 Bft) 97,87 %
24.09.2021 20:52 17,9 C 16,7 C 15,0 C 85 % 1016,4 hPa 0,0 l/m 0 min 0 min 0 W/m 6,4 km/h (2 Bft) 97,87 %
24.09.2021 20:54 17,9 C 16,7 C 15,0 C 85 % 1016,4 hPa 0,0 l/m 0 min 0 min 0 W/m 12,9 km/h (3 Bft) 97,87 %
24.09.2021 20:56 17,9 C 16,7 C 15,0 C 85 % 1016,4 hPa 0,0 l/m 0 min 0 min 0 W/m 9,7 km/h (2 Bft) 97,83 %
24.09.2021 20:58 17,9 C 16,7 C 15,0 C 85 % 1016,4 hPa 0,0 l/m 0 min 0 min 0 W/m 6,4 km/h (2 Bft) 97,87 %
24.09.2021 21:00 17,9 C 16,7 C 15,0 C 85 % 1016,4 hPa 0,0 l/m 0 min 0 min 0 W/m 3,2 km/h (1 Bft) 95,83 %
24.09.2021 21:02 17,8 C 16,7 C 15,0 C 85 % 1016,4 hPa 0,0 l/m 0 min 0 min 0 W/m 6,4 km/h (2 Bft) 97,87 %
24.09.2021 21:04 17,8 C 16,7 C 15,0 C 85 % 1016,5 hPa 0,0 l/m 0 min 0 min 0 W/m 6,4 km/h (2 Bft) 97,87 %
24.09.2021 21:06 17,8 C 16,7 C 15,0 C 85 % 1016,5 hPa 0,0 l/m 0 min 0 min 0 W/m 16,1 km/h (3 Bft) 97,87 %
24.09.2021 21:08 17,8 C 16,7 C 15,0 C 85 % 1016,5 hPa 0,0 l/m 0 min 0 min 0 W/m 9,7 km/h (2 Bft) 97,83 %
24.09.2021 21:10 17,7 C 16,7 C 15,0 C 85 % 1016,5 hPa 0,0 l/m 0 min 0 min 0 W/m 9,7 km/h (2 Bft) 95,74 %
24.09.2021 21:12 17,7 C 16,7 C 15,0 C 85 % 1016,5 hPa 0,0 l/m 0 min 0 min 0 W/m 9,7 km/h (2 Bft) 93,62 %
24.09.2021 21:14 17,6 C 16,7 C 15,0 C 85 % 1016,5 hPa 0,0 l/m 0 min 0 min 0 W/m 12,9 km/h (3 Bft) 95,74 %
24.09.2021 21:16 17,6 C 16,7 C 15,0 C 85 % 1016,4 hPa 0,0 l/m 0 min 0 min 0 W/m 16,1 km/h (3 Bft) 95,74 %
24.09.2021 21:18 17,6 C 16,7 C 15,0 C 85 % 1016,5 hPa 0,0 l/m 0 min 0 min 0 W/m 9,7 km/h (2 Bft) 95,74 %
24.09.2021 21:20 17,6 C 16,7 C 15,0 C 85 % 1016,5 hPa 0,0 l/m 0 min 0 min 0 W/m 9,7 km/h (2 Bft) 95,65 %
24.09.2021 21:22 17,6 C 16,7 C 15,0 C 86 % 1016,5 hPa 0,0 l/m 0 min 0 min 0 W/m 12,9 km/h (3 Bft) 95,74 %
24.09.2021 21:24 17,6 C 16,7 C 15,0 C 86 % 1016,5 hPa 0,0 l/m 0 min 0 min 0 W/m 12,9 km/h (3 Bft) 95,74 %
24.09.2021 21:26 17,6 C 16,7 C 15,0 C 86 % 1016,5 hPa 0,0 l/m 0 min 0 min 0 W/m 12,9 km/h (3 Bft) 95,74 %
24.09.2021 21:28 17,6 C 16,7 C 15,0 C 86 % 1016,6 hPa 0,0 l/m 0 min 0 min 0 W/m 6,4 km/h (2 Bft) 95,74 %
24.09.2021 21:30 17,6 C 16,7 C 15,0 C 86 % 1016,5 hPa 0,0 l/m 0 min 0 min 0 W/m 12,9 km/h (3 Bft) 95,74 %
24.09.2021 21:32 17,6 C 16,7 C 15,0 C 86 % 1016,6 hPa 0,0 l/m 0 min 0 min 0 W/m 6,4 km/h (2 Bft) 95,65 %
24.09.2021 21:34 17,5 C 16,7 C 15,0 C 85 % 1016,6 hPa 0,0 l/m 0 min 0 min 0 W/m 9,7 km/h (2 Bft) 95,74 %
24.09.2021 21:36 17,5 C 16,7 C 15,0 C 85 % 1016,6 hPa 0,0 l/m 0 min 0 min 0 W/m 6,4 km/h (2 Bft) 93,62 %
24.09.2021 21:38 17,5 C 16,7 C 15,0 C 85 % 1016,6 hPa 0,0 l/m 0 min 0 min 0 W/m 19,3 km/h (3 Bft) 93,62 %
24.09.2021 21:40 17,5 C 16,7 C 15,0 C 85 % 1016,6 hPa 0,0 l/m 0 min 0 min 0 W/m 12,9 km/h (3 Bft) 97,87 %
24.09.2021 21:42 17,5 C 16,7 C 15,0 C 85 % 1016,7 hPa 0,0 l/m 0 min 0 min 0 W/m 12,9 km/h (3 Bft) 100,00 %
24.09.2021 21:44 17,5 C 16,7 C 15,0 C 85 % 1016,7 hPa 0,0 l/m 0 min 0 min 0 W/m 12,9 km/h (3 Bft) 100,00 %
24.09.2021 21:46 17,5 C 16,7 C 15,0 C 85 % 1016,7 hPa 0,0 l/m 0 min 0 min 0 W/m 12,9 km/h (3 Bft) 100,00 %
24.09.2021 21:48 17,5 C 16,7 C 15,0 C 85 % 1016,7 hPa 0,0 l/m 0 min 0 min 0 W/m 6,4 km/h (2 Bft) 100,00 %
24.09.2021 21:50 17,4 C 16,7 C 15,0 C 86 % 1016,7 hPa 0,0 l/m 0 min 0 min 0 W/m 9,7 km/h (2 Bft) 100,00 %
24.09.2021 21:52 17,4 C 16,7 C 15,0 C 86 % 1016,7 hPa 0,0 l/m 0 min 0 min 0 W/m 9,7 km/h (2 Bft) 100,00 %
24.09.2021 21:54 17,4 C 16,1 C 15,0 C 86 % 1016,7 hPa 0,0 l/m 0 min 0 min 0 W/m 6,4 km/h (2 Bft) 100,00 %
24.09.2021 21:56 17,3 C 16,1 C 15,0 C 86 % 1016,6 hPa 0,0 l/m 0 min 0 min 0 W/m 12,9 km/h (3 Bft) 97,83 %
24.09.2021 21:58 17,3 C 16,1 C 15,0 C 86 % 1016,6 hPa 0,0 l/m 0 min 0 min 0 W/m 9,7 km/h (2 Bft) 100,00 %
24.09.2021 22:00 17,3 C 16,1 C 15,0 C 86 % 1016,6 hPa 0,0 l/m 0 min 0 min 0 W/m 9,7 km/h (2 Bft) 100,00 %
24.09.2021 22:02 17,3 C 16,1 C 15,0 C 86 % 1016,6 hPa 0,0 l/m 0 min 0 min 0 W/m 6,4 km/h (2 Bft) 100,00 %
24.09.2021 22:04 17,3 C 16,1 C 15,0 C 86 % 1016,6 hPa 0,0 l/m 0 min 0 min 0 W/m 12,9 km/h (3 Bft) 97,87 %
24.09.2021 22:06 17,2 C 16,1 C 15,0 C 86 % 1016,6 hPa 0,0 l/m 0 min 0 min 0 W/m 12,9 km/h (3 Bft) 100,00 %
24.09.2021 22:08 17,2 C 16,1 C 15,0 C 86 % 1016,6 hPa 0,0 l/m 0 min 0 min 0 W/m 16,1 km/h (3 Bft) 100,00 %
24.09.2021 22:10 17,1 C 16,1 C 14,5 C 86 % 1016,5 hPa 0,0 l/m 0 min 0 min 0 W/m 9,7 km/h (2 Bft) 100,00 %
24.09.2021 22:12 17,1 C 16,1 C 14,5 C 86 % 1016,5 hPa 0,0 l/m 0 min 0 min 0 W/m 12,9 km/h (3 Bft) 100,00 %
24.09.2021 22:14 17,1 C 16,1 C 14,5 C 86 % 1016,5 hPa 0,0 l/m 0 min 0 min 0 W/m 12,9 km/h (3 Bft) 100,00 %
24.09.2021 22:16 17,1 C 16,1 C 14,5 C 86 % 1016,6 hPa 0,0 l/m 0 min 0 min 0 W/m 6,4 km/h (2 Bft) 100,00 %
24.09.2021 22:18 17,1 C 16,1 C 14,5 C 86 % 1016,5 hPa 0,0 l/m 0 min 0 min 0 W/m 12,9 km/h (3 Bft) 100,00 %
24.09.2021 22:20 17,1 C 16,1 C 14,5 C 86 % 1016,6 hPa 0,0 l/m 0 min 0 min 0 W/m 12,9 km/h (3 Bft) 97,87 %
24.09.2021 22:22 17,0 C 16,1 C 14,5 C 86 % 1016,6 hPa 0,0 l/m 0 min 0 min 0 W/m 9,7 km/h (2 Bft) 100,00 %
24.09.2021 22:24 17,0 C 16,1 C 14,5 C 87 % 1016,6 hPa 0,0 l/m 0 min 0 min 0 W/m 6,4 km/h (2 Bft) 100,00 %
24.09.2021 22:26 17,0 C 16,1 C 14,5 C 87 % 1016,6 hPa 0,0 l/m 0 min 0 min 0 W/m 9,7 km/h (2 Bft) 97,87 %
24.09.2021 22:28 17,0 C 16,1 C 14,5 C 87 % 1016,6 hPa 0,0 l/m 0 min 0 min 0 W/m 6,4 km/h (2 Bft) 95,65 %
24.09.2021 22:30 17,0 C 16,1 C 14,5 C 87 % 1016,6 hPa 0,0 l/m 0 min 0 min 0 W/m 12,9 km/h (3 Bft) 97,87 %
24.09.2021 22:32 16,9 C 16,1 C 14,5 C 87 % 1016,6 hPa 0,0 l/m 0 min 0 min 0 W/m 9,7 km/h (2 Bft) 95,74 %
24.09.2021 22:34 16,9 C 16,1 C 14,5 C 87 % 1016,6 hPa 0,0 l/m 0 min 0 min 0 W/m 3,2 km/h (1 Bft) 95,74 %
24.09.2021 22:36 16,9 C 16,1 C 14,5 C 87 % 1016,6 hPa 0,0 l/m 0 min 0 min 0 W/m 12,9 km/h (3 Bft) 97,87 %
24.09.2021 22:38 16,9 C 16,1 C 14,5 C 87 % 1016,5 hPa 0,0 l/m 0 min 0 min 0 W/m 9,7 km/h (2 Bft) 97,87 %
24.09.2021 22:40 16,9 C 16,1 C 14,5 C 87 % 1016,6 hPa 0,0 l/m 0 min 0 min 0 W/m 6,4 km/h (2 Bft) 97,83 %
24.09.2021 22:42 16,9 C 16,1 C 14,5 C 87 % 1016,6 hPa 0,0 l/m 0 min 0 min 0 W/m 9,7 km/h (2 Bft) 97,87 %
24.09.2021 22:44 16,8 C 16,1 C 14,5 C 87 % 1016,6 hPa 0,0 l/m 0 min 0 min 0 W/m 9,7 km/h (2 Bft) 97,87 %
24.09.2021 22:46 16,8 C 16,1 C 14,5 C 87 % 1016,6 hPa 0,0 l/m 0 min 0 min 0 W/m 9,7 km/h (2 Bft) 95,74 %
24.09.2021 22:48 16,8 C 15,6 C 14,5 C 87 % 1016,6 hPa 0,0 l/m 0 min 0 min 0 W/m 16,1 km/h (3 Bft) 97,87 %
24.09.2021 22:50 16,8 C 15,6 C 14,5 C 87 % 1016,5 hPa 0,0 l/m 0 min 0 min 0 W/m 6,4 km/h (2 Bft) 97,87 %
24.09.2021 22:52 16,8 C 15,6 C 14,5 C 87 % 1016,5 hPa 0,0 l/m 0 min 0 min 0 W/m 6,4 km/h (2 Bft) 97,83 %
24.09.2021 22:54 16,7 C 15,6 C 14,5 C 87 % 1016,6 hPa 0,0 l/m 0 min 0 min 0 W/m 12,9 km/h (3 Bft) 95,74 %
24.09.2021 22:56 16,7 C 15,6 C 14,5 C 87 % 1016,6 hPa 0,0 l/m 0 min 0 min 0 W/m 6,4 km/h (2 Bft) 97,87 %
24.09.2021 22:58 16,7 C 15,6 C 14,5 C 87 % 1016,6 hPa 0,0 l/m 0 min 0 min 0 W/m 6,4 km/h (2 Bft) 97,87 %
24.09.2021 23:00 16,6 C 15,6 C 13,9 C 87 % 1016,6 hPa 0,0 l/m 0 min 0 min 0 W/m 9,7 km/h (2 Bft) 97,87 %
24.09.2021 23:02 16,6 C 15,6 C 13,9 C 88 % 1016,5 hPa 0,0 l/m 0 min 0 min 0 W/m 12,9 km/h (3 Bft) 93,62 %
24.09.2021 23:04 16,6 C 15,6 C 13,9 C 88 % 1016,5 hPa 0,0 l/m 0 min 0 min 0 W/m 9,7 km/h (2 Bft) 95,65 %
24.09.2021 23:06 16,6 C 15,6 C 13,9 C 88 % 1016,6 hPa 0,0 l/m 0 min 0 min 0 W/m 6,4 km/h (2 Bft) 95,74 %
24.09.2021 23:08 16,5 C 15,6 C 13,9 C 88 % 1016,5 hPa 0,0 l/m 0 min 0 min 0 W/m 6,4 km/h (2 Bft) 95,74 %
24.09.2021 23:10 16,5 C 15,6 C 13,9 C 88 % 1016,5 hPa 0,0 l/m 0 min 0 min 0 W/m 12,9 km/h (3 Bft) 95,74 %
24.09.2021 23:12 16,5 C 15,6 C 13,9 C 88 % 1016,5 hPa 0,0 l/m 0 min 0 min 0 W/m 12,9 km/h (3 Bft) 95,74 %
24.09.2021 23:14 16,5 C 15,6 C 13,9 C 88 % 1016,5 hPa 0,0 l/m 0 min 0 min 0 W/m 12,9 km/h (3 Bft) 95,74 %
24.09.2021 23:16 16,4 C 15,6 C 13,9 C 88 % 1016,5 hPa 0,0 l/m 0 min 0 min 0 W/m 12,9 km/h (3 Bft) 95,65 %
24.09.2021 23:18 16,4 C 15,6 C 13,9 C 88 % 1016,4 hPa 0,0 l/m 0 min 0 min 0 W/m 9,7 km/h (2 Bft) 93,62 %
24.09.2021 23:20 16,4 C 15,6 C 13,9 C 88 % 1016,5 hPa 0,0 l/m 0 min 0 min 0 W/m 12,9 km/h (3 Bft) 97,14 %
24.09.2021 23:22 16,4 C 15,6 C 13,9 C 88 % 1016,4 hPa 0,0 l/m 0 min 0 min 0 W/m 6,4 km/h (2 Bft) 95,74 %
24.09.2021 23:24 16,3 C 15,6 C 13,9 C 88 % 1016,4 hPa 0,0 l/m 0 min 0 min 0 W/m 6,4 km/h (2 Bft) 95,74 %
24.09.2021 23:26 16,3 C 15,6 C 13,9 C 89 % 1016,5 hPa 0,0 l/m 0 min 0 min 0 W/m 3,2 km/h (1 Bft) 93,62 %
24.09.2021 23:28 16,3 C 15,0 C 13,9 C 89 % 1016,5 hPa 0,0 l/m 0 min 0 min 0 W/m 3,2 km/h (1 Bft) 97,87 %
24.09.2021 23:30 16,3 C 15,0 C 13,9 C 89 % 1016,5 hPa 0,0 l/m 0 min 0 min 0 W/m 3,2 km/h (1 Bft) 95,65 %
24.09.2021 23:32 16,3 C 15,0 C 13,9 C 89 % 1016,5 hPa 0,0 l/m 0 min 0 min 0 W/m 3,2 km/h (1 Bft) 96,23 %
24.09.2021 23:34 16,2 C 15,0 C 13,9 C 89 % 1016,5 hPa 0,0 l/m 0 min 0 min 0 W/m 6,4 km/h (2 Bft) 100,00 %
24.09.2021 23:36 16,1 C 15,0 C 13,9 C 89 % 1016,5 hPa 0,0 l/m 0 min 0 min 0 W/m 3,2 km/h (1 Bft) 93,62 %
24.09.2021 23:38 16,1 C 15,0 C 13,9 C 89 % 1016,4 hPa 0,0 l/m 0 min 0 min 0 W/m 6,4 km/h (2 Bft) 97,87 %
24.09.2021 23:40 16,1 C 15,0 C 13,4 C 89 % 1016,4 hPa 0,0 l/m 0 min 0 min 0 W/m 6,4 km/h (2 Bft) 95,74 %
24.09.2021 23:42 16,1 C 15,0 C 13,4 C 89 % 1016,5 hPa 0,0 l/m 0 min 0 min 0 W/m 6,4 km/h (2 Bft) 97,87 %
24.09.2021 23:44 16,0 C 15,0 C 13,4 C 89 % 1016,4 hPa 0,0 l/m 0 min 0 min 0 W/m 6,4 km/h (2 Bft) 97,83 %
24.09.2021 23:46 16,0 C 15,0 C 13,4 C 89 % 1016,5 hPa 0,0 l/m 0 min 0 min 0 W/m 6,4 km/h (2 Bft) 95,74 %
24.09.2021 23:48 16,0 C 15,0 C 13,9 C 89 % 1016,5 hPa 0,0 l/m 0 min 0 min 0 W/m 6,4 km/h (2 Bft) 97,87 %
24.09.2021 23:50 16,0 C 15,0 C 13,4 C 89 % 1016,5 hPa 0,0 l/m 0 min 0 min 0 W/m 6,4 km/h (2 Bft) 97,87 %
24.09.2021 23:52 16,0 C 15,0 C 13,9 C 89 % 1016,4 hPa 0,0 l/m 0 min 0 min 0 W/m 3,2 km/h (1 Bft) 97,87 %
24.09.2021 23:54 16,0 C 15,0 C 13,9 C 89 % 1016,5 hPa 0,0 l/m 0 min 0 min 0 W/m 12,9 km/h (3 Bft) 97,87 %
24.09.2021 23:56 15,9 C 15,0 C 13,4 C 89 % 1016,4 hPa 0,0 l/m 0 min 0 min 0 W/m 6,4 km/h (2 Bft) 95,65 %
24.09.2021 23:58 15,9 C 15,0 C 13,4 C 89 % 1016,5 hPa 0,0 l/m 0 min 0 min 0 W/m 6,4 km/h (2 Bft) 97,87 %
_ Min-Zeit 08:24 07:56 02:28 18:16 17:22 - - - - 01:24 14:58
Minimum _ 14,6 C 13,9 C 13,4 C 72 % 1015,2 hPa - - - - 0,0 km/h (0 Bft) 91,30 %
_ Max-Zeit 17:46 16:50 16:50 09:10 00:00 00:00 18:08 00:00 16:50 08:48 00:26
Maximum _ 20,8 C 25,0 C 18,4 C 96 % 1017,9 hPa 0,0 l/m 4 min 0 min 461 W/m 22,5 km/h
S (4 Bft)
100,00 %
Durchschnitt _ 17,2 C 16,7 C 15,2 C 87 % 1016,8 hPa #0,0 l/m #1:24 h #0 min. 134 W/m 9,4 km/h (2 Bft) 97,59 %
© 2021 W. Hausmann